Flight Track Log - Related Links

Times and Time Zones

All times are in EDT time to prevent confusion due to time zone crossing. See the UAL139 flight status page for this flight to view local times or setup timezone preferences in your user account.

Time Position Orientation Groundspeed Altitude Reporting Facility
EDT Latitude Longitude Course Direction KTS MPH feet Rate Location/Type
Tue 02:32:01 PM 39.8410 -104.7260 180° South 200 230 5,400  Level FlightAware ADS-B
Tue 02:32:22 PM 39.8410 -104.7520 270° West 201 231 6,300 2,276 Climbing FlightAware ADS-B
Tue 02:32:30 PM 39.8430 -104.7620 285° West 205 236 6,500 1,500 Climbing FlightAware ADS-B
Tue 02:32:34 PM 39.8440 -104.7660 288° West 208 239 6,600 1,000 Climbing FlightAware ADS-B
Tue 02:32:42 PM 39.8470 -104.7740 296° West 216 249 6,700 750 Climbing FlightAware ADS-B
Tue 02:32:58 PM 39.8570 -104.7930 304° West 242 278 6,900 1,412 Climbing FlightAware ADS-B
Tue 02:33:16 PM 39.8690 -104.8160 304° West 258 297 7,500 2,211 Climbing FlightAware ADS-B
Tue 02:33:36 PM 39.8820 -104.8430 302° West 269 310 8,300 2,455 Climbing FlightAware ADS-B
Tue 02:34:00 PM 39.9000 -104.8770 305° West 281 323 9,300 2,625 Climbing FlightAware ADS-B
Tue 02:34:08 PM 39.9070 -104.8850 319° Northwest 282 325 9,700 3,000 Climbing FlightAware ADS-B
Tue 02:34:20 PM 39.9220 -104.8950 333° Northwest 289 333 10,300 2,250 Climbing FlightAware ADS-B
Tue 02:34:32 PM 39.9370 -104.8980 351° North 302 348 10,600 1,256 Climbing FlightAware ADS-B
Tue 02:35:03 PM 39.9759 -104.9048 352° North 338 389 11,200 2,066 Climbing FlightAware ADS-B (KEIK)
Tue 02:35:33 PM 40.0288 -104.9155 351° North 341 392 12,700 3,400 Climbing FlightAware ADS-B (KEIK)
Tue 02:36:03 PM 40.0730 -104.9246 351° North 327 376 14,600 2,917 Climbing FlightAware ADS-B (KEIK)
Tue 02:36:45 PM 40.1331 -104.9371 351° North 339 390 16,200 2,417 Climbing FlightAware ADS-B (KEIK)
Tue 02:37:15 PM 40.1855 -104.9479 351° North 341 392 17,500 2,190 Climbing FlightAware ADS-B (KEIK)
Tue 02:37:48 PM 40.2345 -104.9582 351° North 350 403 18,500 2,174 Climbing FlightAware ADS-B (KEIK)
Tue 02:38:24 PM 40.2460 -104.9606 351° North 353 406 20,000 2,182 Climbing FlightAware ADS-B (KANK)
Tue 02:38:54 PM 40.3466 -104.9812 351° North 361 415 20,900 1,900 Climbing FlightAware ADS-B (KANK)
Tue 02:39:24 PM 40.3751 -104.9871 351° North 368 423 21,900 1,875 Climbing FlightAware ADS-B (KANK)
Tue 02:39:58 PM 40.4501 -105.0026 351° North 374 430 22,900 1,726 Climbing FlightAware ADS-B (KEIK)
Tue 02:40:37 PM 40.5152 -105.0159 351° North 382 440 24,000 1,714 Climbing FlightAware ADS-B (KEIK)
Tue 02:41:08 PM 40.5760 -105.0285 351° North 388 447 24,900 1,574 Climbing FlightAware ADS-B (KEIK)
Tue 02:41:38 PM 40.6103 -105.0358 351° North 394 453 25,600 1,400 Climbing FlightAware ADS-B (KEIK)
Tue 02:42:08 PM 40.6838 -105.0511 351° North 404 465 26,300 1,569 Climbing FlightAware ADS-B (KEIK)
Tue 02:42:43 PM 40.4917 -105.0111 171° South 405 466 27,300 1,600 Climbing FlightAware ADS-B (KANK)
Tue 02:43:08 PM 40.7876 -105.0942 348° North 404 465 27,900 1,429 Climbing FlightAware ADS-B (KEIK)
Tue 02:43:46 PM 40.7876 -105.0942 348° North 409 471 28,800 1,371 Climbing FlightAware ADS-B (KEIK)
Tue 02:44:18 PM 40.8813 -105.1993 320° Northwest 414 476 29,500 1,324 Climbing FlightAware ADS-B (KEIK)
Tue 02:44:54 PM 40.9372 -105.2755 314° West 421 484 30,300 1,157 Climbing FlightAware ADS-B (KEIK)
Tue 02:45:41 PM 40.9840 -105.3790 301° West 428 493 31,100 1,014 Climbing FlightAware ADS-B
Tue 02:46:05 PM 41.0080 -105.4330 301° West 433 498 31,500 952 Climbing FlightAware ADS-B
Tue 02:46:44 PM 41.0490 -105.5250 301° West 441 507 32,100 904 Climbing FlightAware ADS-B
Tue 02:47:18 PM 41.0840 -105.6030 301° West 445 512 32,600 938 Climbing FlightAware ADS-B
Tue 02:47:48 PM 41.1160 -105.6760 300° West 449 517 33,100 971 Climbing FlightAware ADS-B
Tue 02:48:26 PM 41.1570 -105.7690 300° West 452 520 33,700 878 Climbing FlightAware ADS-B
Tue 02:49:10 PM 41.2020 -105.8720 300° West 457 526 34,300 1,050 Climbing FlightAware ADS-B
Tue 02:49:46 PM 41.2430 -105.9580 302° West 451 519 35,100 1,313 Climbing FlightAware ADS-B
Tue 02:50:14 PM 41.2740 -106.0230 302° West 448 516 35,700 947 Climbing FlightAware ADS-B
Tue 02:51:02 PM 41.3260 -106.1340 302° West 449 517 36,300 741 Climbing FlightAware ADS-B
Tue 02:51:35 PM 41.3630 -106.2130 302° West 451 519 36,700 609 Climbing FlightAware ADS-B
Tue 02:52:11 PM 41.4010 -106.2950 302° West 453 521 37,000 462 Climbing FlightAware ADS-B
Tue 02:52:40 PM 41.4340 -106.3670 301° West 457 526 37,200 369 Climbing FlightAware ADS-B
Tue 02:53:16 PM 41.4740 -106.4520 302° West 459 528 37,400 483 Climbing FlightAware ADS-B
Tue 02:54:07 PM 41.5310 -106.5780 301° West 460 529 37,900 330 Climbing FlightAware ADS-B
Tue 02:54:47 PM 41.5690 -106.6610 301° West 460 529 37,900 86 Level FlightAware ADS-B
Tue 02:55:17 PM 41.6070 -106.7430 302° West 456 525 38,000 91 Climbing FlightAware ADS-B
Tue 02:55:53 PM 41.6370 -106.8100 301° West 456 525 38,000  Level FlightAware ADS-B
Tue 02:56:32 PM 41.6910 -106.9260 302° West 456 525 38,000  Level FlightAware ADS-B
Tue 02:57:08 PM 41.7300 -107.0120 301° West 457 526 38,000  Level FlightAware ADS-B
Tue 02:57:40 PM 41.7600 -107.0790 301° West 457 526 38,000  Level FlightAware ADS-B
Tue 02:58:17 PM 41.7940 -107.1560 301° West 457 526 38,000  Level FlightAware ADS-B
Tue 02:58:54 PM 41.8430 -107.2640 301° West 459 528 38,000  Level FlightAware ADS-B
Tue 02:59:31 PM 41.8780 -107.3410 301° West 459 528 38,000  Level FlightAware ADS-B
Tue 03:00:07 PM 41.9110 -107.4160 301° West 459 528 38,000  Level FlightAware ADS-B
Tue 03:00:44 PM 41.9460 -107.4930 301° West 459 528 38,000  Level FlightAware ADS-B
Tue 03:01:20 PM 41.9790 -107.5680 301° West 459 528 38,000  Level FlightAware ADS-B
Tue 03:01:56 PM 42.0120 -107.6430 301° West 459 528 38,000  Level FlightAware ADS-B
Tue 03:02:33 PM 42.0470 -107.7200 301° West 459 528 38,000  Level FlightAware ADS-B
Tue 03:03:07 PM 42.0780 -107.7900 301° West 459 528 38,000  Level FlightAware ADS-B
Tue 03:03:44 PM 42.1130 -107.8680 301° West 459 528 38,000  Level FlightAware ADS-B
Tue 03:04:20 PM 42.1460 -107.9430 301° West 459 528 38,000  Level FlightAware ADS-B
Tue 03:04:57 PM 42.1810 -108.0200 302° West 459 528 38,000  Level FlightAware ADS-B
Tue 03:05:33 PM 42.2140 -108.0950 301° West 459 528 38,000  Level FlightAware ADS-B
Tue 03:06:09 PM 42.2480 -108.1700 302° West 459 528 38,000  Level FlightAware ADS-B
Tue 03:06:45 PM 42.2810 -108.2460 300° West 459 528 38,000  Level FlightAware ADS-B
Tue 03:07:21 PM 42.3150 -108.3210 302° West 459 528 38,000  Level FlightAware ADS-B
Tue 03:07:58 PM 42.3490 -108.3980 301° West 459 528 38,000  Level FlightAware ADS-B
Tue 03:08:34 PM 42.3820 -108.4740 300° West 459 528 38,000  Level FlightAware ADS-B
Tue 03:09:58 PM 42.5547 -108.8942 300° West 461 531 38,000  Level Salt Lake Center
Tue 03:10:59 PM 42.6261 -109.0622 300° West 463 533 38,000  Level Salt Lake Center
Tue 03:12:01 PM 42.6867 -109.2072 300° West 462 532 38,000  Level Salt Lake Center
Tue 03:13:03 PM 42.7583 -109.3742 300° West 460 529 38,000  Level Salt Lake Center
Tue 03:14:05 PM 42.8181 -109.5219 299° West 465 535 38,000  Level Salt Lake Center
Tue 03:15:06 PM 42.8872 -109.6897 299° West 459 528 38,000  Level Salt Lake Center
Tue 03:16:08 PM 42.9478 -109.8358 300° West 462 532 38,000  Level Salt Lake Center
Tue 03:17:10 PM 43.0106 -109.9881 299° West 460 529 38,000  Level Salt Lake Center
Tue 03:18:12 PM 43.0811 -110.1592 299° West 461 531 38,000  Level Salt Lake Center
Tue 03:19:14 PM 43.1411 -110.3064 299° West 462 532 38,000  Level Salt Lake Center
Tue 03:20:16 PM 43.2100 -110.4806 299° West 465 535 38,000  Level Salt Lake Center
Tue 03:21:18 PM 43.2706 -110.6278 300° West 463 533 38,000  Level Salt Lake Center
Tue 03:22:19 PM 43.3306 -110.7772 299° West 465 535 38,000  Level Salt Lake Center
Tue 03:23:21 PM 43.4003 -110.9517 299° West 466 536 38,000  Level Salt Lake Center
Tue 03:24:23 PM 43.4592 -111.1011 299° West 463 533 38,000  Level Salt Lake Center
Tue 03:25:25 PM 43.5278 -111.2767 298° West 466 536 38,000  Level Salt Lake Center
Tue 03:26:27 PM 43.5867 -111.4281 298° West 466 536 38,000  Level Salt Lake Center
Tue 03:27:29 PM 43.6556 -111.6044 298° West 466 536 38,000  Level Salt Lake Center
Tue 03:33:01 PM 43.9946 -112.4930 298° West 470 541 38,000  Level FlightAware ADS-B
Tue 03:33:44 PM 44.0384 -112.6100 298° West 471 542 38,000  Level FlightAware ADS-B
Tue 03:37:00 PM 44.2207 -113.1104 297° West  Level FlightAware Approximate
Tue 03:38:00 PM 44.2761 -113.2642 297° West  Level FlightAware Approximate
Tue 03:39:00 PM 44.3313 -113.4183 297° West  Level FlightAware Approximate
Tue 03:40:00 PM 44.3863 -113.5727 297° West  Level FlightAware Approximate
Tue 03:41:00 PM 44.4411 -113.7273 296° West  Level FlightAware Approximate
Tue 03:41:22 PM 44.4930 -113.8550 296° West 474 545 38,000  Level FlightAware ADS-B
Tue 03:41:54 PM 44.5240 -113.9440 296° West 474 545 38,000  Level FlightAware ADS-B
Tue 03:42:32 PM 44.5610 -114.0470 297° West 476 548 38,000  Level FlightAware ADS-B
Tue 03:43:04 PM 44.5930 -114.1370 297° West 476 548 38,000  Level FlightAware ADS-B
Tue 03:43:40 PM 44.6270 -114.2350 296° West 476 548 38,000  Level FlightAware ADS-B
Tue 03:44:21 PM 44.6610 -114.3320 296° West 476 548 38,000  Level FlightAware ADS-B
Tue 03:44:58 PM 44.6910 -114.4200 296° West 476 548 38,000  Level FlightAware ADS-B
Tue 03:45:22 PM 44.7270 -114.5190 297° West 477 549 38,000  Level FlightAware ADS-B
Tue 03:46:01 PM 44.7570 -114.6070 296° West 477 549 38,000  Level FlightAware ADS-B
Tue 03:46:33 PM 44.7860 -114.6900 296° West 478 550 38,000  Level FlightAware ADS-B
Tue 03:47:10 PM 44.8310 -114.8190 296° West 478 550 38,000  Level FlightAware ADS-B
Tue 03:47:43 PM 44.8620 -114.9100 296° West 478 550 38,000  Level FlightAware ADS-B
Tue 03:48:18 PM 44.8950 -115.0090 295° West 478 550 38,000  Level FlightAware ADS-B
Tue 03:48:50 PM 44.9260 -115.0990 296° West 479 551 38,000  Level FlightAware ADS-B
Tue 03:49:26 PM 44.9610 -115.2010 296° West 479 551 38,000  Level FlightAware ADS-B
Tue 03:50:02 PM 44.9960 -115.3040 296° West 480 552 38,000  Level FlightAware ADS-B
Tue 03:50:39 PM 45.0300 -115.4040 296° West 480 552 38,000  Level FlightAware ADS-B
Tue 03:51:06 PM 45.0570 -115.4840 296° West 479 551 38,000  Level FlightAware ADS-B
Tue 03:51:39 PM 45.0870 -115.5750 295° West 479 551 38,000  Level FlightAware ADS-B
Tue 03:52:10 PM 45.1160 -115.6630 295° West 480 552 38,000  Level FlightAware ADS-B
Tue 03:52:46 PM 45.1510 -115.7660 296° West 481 554 38,000  Level FlightAware ADS-B
Tue 03:53:30 PM 45.1920 -115.8920 295° West 482 555 38,000  Level FlightAware ADS-B
Tue 03:54:04 PM 45.2240 -115.9890 295° West 480 552 38,000  Level FlightAware ADS-B
Tue 03:54:40 PM 45.2590 -116.0940 295° West 480 552 38,000  Level FlightAware ADS-B
Tue 03:55:08 PM 45.2850 -116.1720 295° West 480 552 38,000  Level FlightAware ADS-B
Tue 03:55:42 PM 45.3170 -116.2710 295° West 481 554 38,000  Level FlightAware ADS-B
Tue 03:56:18 PM 45.3490 -116.3720 294° West 482 555 38,000  Level FlightAware ADS-B
Tue 03:56:47 PM 45.3760 -116.4530 295° West 483 556 38,000  Level FlightAware ADS-B
Tue 03:57:24 PM 45.4100 -116.5570 295° West 483 556 38,000  Level FlightAware ADS-B
Tue 03:58:00 PM 45.4440 -116.6640 294° West 482 555 38,000  Level FlightAware ADS-B
Tue 03:58:34 PM 45.4760 -116.7650 294° West 482 555 38,000  Level FlightAware ADS-B
Tue 03:59:08 PM 45.5070 -116.8620 295° West 481 554 38,000  Level FlightAware ADS-B
Tue 03:59:45 PM 45.5400 -116.9660 294° West 481 554 38,000  Level FlightAware ADS-B
Tue 04:00:14 PM 45.5670 -117.0510 294° West 481 554 38,000  Level FlightAware ADS-B
Tue 04:00:50 PM 45.6000 -117.1570 294° West 481 554 38,000  Level FlightAware ADS-B
Tue 04:01:36 PM 45.6430 -117.2910 295° West 482 555 38,000  Level FlightAware ADS-B
Tue 04:02:08 PM 45.6710 -117.3810 294° West 482 555 38,000  Level FlightAware ADS-B
Tue 04:02:45 PM 45.7040 -117.4870 294° West 481 554 38,000  Level FlightAware ADS-B
Tue 04:03:17 PM 45.7340 -117.5830 294° West 482 555 38,000  Level FlightAware ADS-B
Tue 04:03:58 PM 45.7700 -117.7010 294° West 481 554 38,000  Level FlightAware ADS-B
Tue 04:04:31 PM 45.7990 -117.7970 293° West 482 555 38,000  Level FlightAware ADS-B
Tue 04:05:05 PM 45.8300 -117.8980 294° West 482 555 38,000  Level FlightAware ADS-B
Tue 04:05:42 PM 45.8630 -118.0060 294° West 481 554 38,000  Level FlightAware ADS-B
Tue 04:06:17 PM 45.8940 -118.1070 294° West 481 554 38,000  Level FlightAware ADS-B
Tue 04:06:52 PM 45.9250 -118.2090 294° West 482 555 38,000  Level FlightAware ADS-B
Tue 04:07:30 PM 45.9590 -118.3220 293° West 483 556 38,000  Level FlightAware ADS-B
Tue 04:07:58 PM 45.9840 -118.4070 293° West 483 556 38,000  Level FlightAware ADS-B
Tue 04:08:33 PM 46.0150 -118.5090 294° West 483 556 38,000  Level FlightAware ADS-B
Tue 04:09:08 PM 46.0460 -118.6120 293° West 483 556 38,000  Level FlightAware ADS-B
Tue 04:09:52 PM 46.0840 -118.7400 293° West 483 556 38,000  Level FlightAware ADS-B
Tue 04:10:28 PM 46.1140 -118.8440 293° West 484 557 38,000  Level FlightAware ADS-B
Tue 04:11:04 PM 46.1460 -118.9530 293° West 484 557 38,000  Level FlightAware ADS-B
Tue 04:11:36 PM 46.1660 -119.0190 294° West 484 557 38,000  Level FlightAware ADS-B
Tue 04:12:13 PM 46.2070 -119.1610 293° West 486 559 38,000  Level FlightAware ADS-B
Tue 04:12:57 PM 46.2450 -119.2920 293° West 486 559 38,000  Level FlightAware ADS-B
Tue 04:13:29 PM 46.2720 -119.3860 293° West 486 559 38,000  Level FlightAware ADS-B
Tue 04:14:04 PM 46.3020 -119.4900 293° West 486 559 38,000  Level FlightAware ADS-B
Tue 04:14:39 PM 46.3320 -119.5950 293° West 487 560 38,000  Level FlightAware ADS-B
Tue 04:15:15 PM 46.3630 -119.7030 293° West 487 560 38,000  Level FlightAware ADS-B
Tue 04:15:52 PM 46.3950 -119.8170 292° West 487 560 38,000  Level FlightAware ADS-B
Tue 04:16:27 PM 46.4250 -119.9220 293° West 485 558 38,000  Level FlightAware ADS-B
Tue 04:17:01 PM 46.4540 -120.0250 292° West 486 559 38,000  Level FlightAware ADS-B
Tue 04:17:09 PM 46.4601 -120.0480 291° West 487 560 38,000  Level FlightAware ADS-B
Tue 04:17:39 PM 46.4854 -120.1390 292° West 487 560 38,000  Level FlightAware ADS-B
Tue 04:18:10 PM 46.5115 -120.2320 292° West 486 559 38,000  Level FlightAware ADS-B
Tue 04:18:40 PM 46.5368 -120.3240 292° West 486 559 38,000  Level FlightAware ADS-B
Tue 04:19:01 PM 46.5548 -120.3880 292° West 486 559 38,000  Level FlightAware ADS-B
Tue 04:19:25 PM 46.5780 -120.4550 297° West 484 557 38,000  Level FlightAware ADS-B
Tue 04:19:49 PM 46.6074 -120.5220 303° West 484 557 38,000  Level FlightAware ADS-B
Tue 04:20:19 PM 46.6462 -120.6030 305° West 485 558 38,000  Level FlightAware ADS-B
Tue 04:20:49 PM 46.6844 -120.6840 305° West 485 558 38,000  Level FlightAware ADS-B
Tue 04:21:20 PM 46.7231 -120.7650 305° West 485 558 38,000  Level FlightAware ADS-B
Tue 04:21:50 PM 46.7620 -120.8470 305° West 485 558 38,000  Level FlightAware ADS-B
Tue 04:22:21 PM 46.8010 -120.9300 304° West 485 558 38,000  Level FlightAware ADS-B
Tue 04:22:52 PM 46.8402 -121.0130 305° West 485 558 38,000  Level FlightAware ADS-B
Tue 04:23:22 PM 46.8783 -121.0950 304° West 483 556 38,000  Level FlightAware ADS-B
Tue 04:23:25 PM 46.8801 -121.0983 309° West 484 557 38,000  Level FlightAware ADS-B (EGNM / LBA)
Tue 04:23:53 PM 46.9167 -121.1760 305° West 483 556 38,000  Level FlightAware ADS-B
Tue 04:24:23 PM 46.9543 -121.2570 304° West 483 556 38,000  Level FlightAware ADS-B
Tue 04:24:53 PM 46.9922 -121.3390 304° West 482 555 38,000  Level FlightAware ADS-B
Tue 04:25:23 PM 47.0300 -121.4200 304° West 483 556 38,000  Level FlightAware ADS-B
Tue 04:25:42 PM 47.0460 -121.4546 304° West 483 556 38,000  Level FlightAware ADS-B (EGNM / LBA)
Tue 04:25:54 PM 47.0690 -121.5040 304° West 483 556 38,000  Level FlightAware ADS-B
Tue 04:26:25 PM 47.1068 -121.5860 304° West 484 557 38,000  Level FlightAware ADS-B
Tue 04:26:55 PM 47.1443 -121.6680 304° West 485 558 38,000  Level FlightAware ADS-B
Tue 04:27:08 PM 47.1613 -121.7048 304° West 485 558 38,000  Level FlightAware ADS-B
Tue 04:27:25 PM 47.1818 -121.7500 304° West 486 559 38,000  Level FlightAware ADS-B
Tue 04:27:45 PM 47.2060 -121.8027 304° West 486 559 38,000  Level FlightAware ADS-B (EGNM / LBA)
Tue 04:27:55 PM 47.2197 -121.8330 304° West 485 558 38,000  Level FlightAware ADS-B
Tue 04:28:15 PM 47.2439 -121.8858 304° West 486 559 38,000  Level FlightAware ADS-B (EGNM / LBA)
Tue 04:28:25 PM 47.2574 -121.9150 304° West 486 559 38,000  Level FlightAware ADS-B
Tue 04:28:42 PM 47.2791 -121.9630 304° West 486 559 38,000  Level FlightAware ADS-B
Tue 04:28:43 PM 47.2803 -121.9660 301° West 486 559 38,000  Level FlightAware ADS-B
Tue 04:28:44 PM 47.2815 -121.9690 301° West 486 559 38,000  Level FlightAware ADS-B
Tue 04:28:45 PM 47.2820 -121.9698 315° West 486 559 38,000  Level FlightAware ADS-B (EGNM / LBA)
Tue 04:28:46 PM 47.2831 -121.9720 305° West 486 559 38,000  Level FlightAware ADS-B
Tue 04:28:47 PM 47.2843 -121.9750 301° West 486 559 38,000  Level FlightAware ADS-B
Tue 04:28:48 PM 47.2855 -121.9770 311° West 486 559 38,000  Level FlightAware ADS-B
Tue 04:28:49 PM 47.2865 -121.9800 296° West 486 559 38,000  Level FlightAware ADS-B
Tue 04:28:50 PM 47.2883 -121.9840 304° West 486 559 38,000  Level FlightAware ADS-B
Tue 04:28:51 PM 47.2890 -121.9850 316° Northwest 486 559 38,000  Level FlightAware ADS-B
Tue 04:28:52 PM 47.2908 -121.9890 304° West 486 559 38,000  Level FlightAware ADS-B
Tue 04:28:54 PM 47.2930 -121.9940 303° West 487 560 38,000  Level FlightAware ADS-B
Tue 04:28:55 PM 47.2943 -121.9970 303° West 487 560 38,000  Level FlightAware ADS-B
Tue 04:28:56 PM 47.2955 -121.9990 311° West 487 560 38,000  Level FlightAware ADS-B
Tue 04:28:57 PM 47.2967 -122.0020 301° West 487 560 38,000  Level FlightAware ADS-B
Tue 04:28:58 PM 47.2980 -122.0050 303° West 487 560 38,000  Level FlightAware ADS-B
Tue 04:28:59 PM 47.2995 -122.0080 306° West 486 559 38,000  Level FlightAware ADS-B
Tue 04:29:00 PM 47.3008 -122.0110 303° West 487 560 38,000  Level FlightAware ADS-B
Tue 04:29:01 PM 47.3017 -122.0130 304° West 486 559 38,000  Level FlightAware ADS-B
Tue 04:29:02 PM 47.3030 -122.0160 303° West 487 560 38,000  Level FlightAware ADS-B
Tue 04:29:03 PM 47.3045 -122.0190 306° West 486 559 38,000  Level FlightAware ADS-B
Tue 04:29:04 PM 47.3057 -122.0220 301° West 486 559 38,000  Level FlightAware ADS-B
Tue 04:29:05 PM 47.3069 -122.0250 301° West 486 559 38,000  Level FlightAware ADS-B
Tue 04:29:06 PM 47.3080 -122.0270 309° West 487 560 38,000  Level FlightAware ADS-B
Tue 04:29:07 PM 47.3092 -122.0300 301° West 487 560 38,000  Level FlightAware ADS-B
Tue 04:29:09 PM 47.3114 -122.0350 303° West 487 560 38,000  Level FlightAware ADS-B
Tue 04:29:10 PM 47.3127 -122.0370 314° West 487 560 38,000  Level FlightAware ADS-B
Tue 04:29:11 PM 47.3144 -122.0410 302° West 487 560 38,000  Level FlightAware ADS-B
Tue 04:29:12 PM 47.3152 -122.0430 301° West 487 560 38,000  Level FlightAware ADS-B
Tue 04:29:13 PM 47.3169 -122.0470 302° West 487 560 38,000  Level FlightAware ADS-B
Tue 04:29:14 PM 47.3187 -122.0510 304° West 487 560 38,000  Level FlightAware ADS-B
Tue 04:29:15 PM 47.3199 -122.0530 312° West 487 560 38,000  Level FlightAware ADS-B
Tue 04:29:16 PM 47.3207 -122.0550 301° West 487 560 38,000  Level FlightAware ADS-B
Tue 04:29:17 PM 47.3216 -122.0570 304° West 487 560 38,000  Level FlightAware ADS-B
Tue 04:29:18 PM 47.3229 -122.0600 303° West 487 560 38,000  Level FlightAware ADS-B
Tue 04:29:19 PM 47.3242 -122.0630 303° West 487 560 38,000  Level FlightAware ADS-B
Tue 04:29:20 PM 47.3254 -122.0650 312° West 487 560 38,000  Level FlightAware ADS-B
Tue 04:29:21 PM 47.3269 -122.0690 299° West 487 560 38,000  Level FlightAware ADS-B
Tue 04:29:22 PM 47.3281 -122.0710 312° West 487 560 38,000  Level FlightAware ADS-B
Tue 04:29:23 PM 47.3294 -122.0740 303° West 487 560 38,000  Level FlightAware ADS-B
Tue 04:29:24 PM 47.3306 -122.0770 301° West 487 560 38,000  Level FlightAware ADS-B
Tue 04:29:25 PM 47.3316 -122.0790 306° West 487 560 38,000  Level FlightAware ADS-B
Tue 04:29:26 PM 47.3329 -122.0820 303° West 487 560 38,000  Level FlightAware ADS-B
Tue 04:29:27 PM 47.3341 -122.0850 301° West 487 560 38,000  Level FlightAware ADS-B
Tue 04:29:28 PM 47.3356 -122.0880 306° West 487 560 38,000  Level FlightAware ADS-B
Tue 04:29:29 PM 47.3366 -122.0900 306° West 487 560 38,000  Level FlightAware ADS-B
Tue 04:29:32 PM 47.3403 -122.0980 304° West 487 560 38,000  Level FlightAware ADS-B
Tue 04:29:33 PM 47.3421 -122.1020 304° West 487 560 38,000  Level FlightAware ADS-B
Tue 04:29:34 PM 47.3426 -122.1030 306° West 487 560 38,000  Level FlightAware ADS-B
Tue 04:29:35 PM 47.3403 -122.0984 126° Southeast 487 560 38,000  Level FlightAware ADS-B (EGNM / LBA)
Tue 04:29:36 PM 47.3453 -122.1090 305° West 487 560 38,000  Level FlightAware ADS-B
Tue 04:29:37 PM 47.3465 -122.1120 301° West 487 560 38,000  Level FlightAware ADS-B
Tue 04:29:38 PM 47.3478 -122.1150 303° West 487 560 38,000  Level FlightAware ADS-B
Tue 04:29:39 PM 47.3491 -122.1180 303° West 486 559 38,000  Level FlightAware ADS-B
Tue 04:29:40 PM 47.3503 -122.1200 312° West 486 559 38,000  Level FlightAware ADS-B
Tue 04:29:41 PM 47.3513 -122.1230 296° West 486 559 38,000  Level FlightAware ADS-B
Tue 04:29:42 PM 47.3525 -122.1250 312° West 486 559 38,000  Level FlightAware ADS-B
Tue 04:29:43 PM 47.3538 -122.1280 303° West 486 559 38,000  Level FlightAware ADS-B
Tue 04:29:45 PM 47.3562 -122.1340 301° West 486 559 38,000  Level FlightAware ADS-B
Tue 04:29:47 PM 47.3588 -122.1390 308° West 486 559 38,000  Level FlightAware ADS-B
Tue 04:29:48 PM 47.3605 -122.1430 302° West 486 559 38,000  Level FlightAware ADS-B
Tue 04:29:49 PM 47.3620 -122.1460 306° West 486 559 38,000  Level FlightAware ADS-B
Tue 04:29:50 PM 47.3625 -122.1470 306° West 486 559 38,000  Level FlightAware ADS-B
Tue 04:29:51 PM 47.3637 -122.1500 301° West 486 559 38,000  Level FlightAware ADS-B
Tue 04:29:52 PM 47.3649 -122.1530 301° West 486 559 38,000  Level FlightAware ADS-B
Tue 04:29:53 PM 47.3665 -122.1560 308° West 486 559 38,000  Level FlightAware ADS-B
Tue 04:29:55 PM 47.3612 -122.1447 124° Southeast 486 559 38,000  Level FlightAware ADS-B (EGNM / LBA)
Tue 04:29:56 PM 47.3704 -122.1650 304° West 486 559 38,000  Level FlightAware ADS-B
Tue 04:29:57 PM 47.3719 -122.1680 306° West 486 559 38,000  Level FlightAware ADS-B
Tue 04:29:58 PM 47.3724 -122.1690 306° West 486 559 38,000  Level FlightAware ADS-B
Tue 04:29:59 PM 47.3736 -122.1720 301° West 486 559 38,000  Level FlightAware ADS-B
Tue 04:30:00 PM 47.3754 -122.1760 304° West 486 559 38,000  Level FlightAware ADS-B
Tue 04:30:01 PM 47.3769 -122.1790 306° West 486 559 38,000  Level FlightAware ADS-B
Tue 04:30:02 PM 47.3774 -122.1800 306° West 486 559 38,000  Level FlightAware ADS-B
Tue 04:30:03 PM 47.3786 -122.1830 301° West 486 559 38,000  Level FlightAware ADS-B
Tue 04:30:04 PM 47.3799 -122.1860 303° West 486 559 38,000  Level FlightAware ADS-B
Tue 04:30:05 PM 47.3712 -122.1667 124° Southeast 486 559 38,000  Level FlightAware ADS-B (EGNM / LBA)
Tue 04:30:06 PM 47.3823 -122.1920 303° West 486 559 38,000  Level FlightAware ADS-B
Tue 04:30:07 PM 47.3836 -122.1940 314° West 486 559 38,000  Level FlightAware ADS-B
Tue 04:30:08 PM 47.3848 -122.1970 301° West 486 559 38,000  Level FlightAware ADS-B
Tue 04:30:09 PM 47.3868 -122.2010 306° West 486 559 38,000  Level FlightAware ADS-B
Tue 04:30:10 PM 47.3878 -122.2040 296° West 486 559 38,000  Level FlightAware ADS-B
Tue 04:30:11 PM 47.3891 -122.2060 314° West 486 559 38,000  Level FlightAware ADS-B
Tue 04:30:12 PM 47.3903 -122.2090 301° West 486 559 38,000  Level FlightAware ADS-B
Tue 04:30:13 PM 47.3913 -122.2110 306° West 486 559 38,000  Level FlightAware ADS-B
Tue 04:30:15 PM 47.3945 -122.2185 302° West 486 559 38,000  Level FlightAware ADS-B (EGNM / LBA)
Tue 04:30:17 PM 47.3967 -122.2230 306° West 486 559 38,000  Level FlightAware ADS-B
Tue 04:30:18 PM 47.3979 -122.2260 301° West 486 559 38,000  Level FlightAware ADS-B
Tue 04:30:23 PM 47.4039 -122.2390 304° West 486 559 38,000  Level FlightAware ADS-B
Tue 04:30:24 PM 47.4051 -122.2420 301° West 486 559 38,000  Level FlightAware ADS-B
Tue 04:30:25 PM 47.4064 -122.2450 303° West 486 559 38,000  Level FlightAware ADS-B
Tue 04:30:26 PM 47.4076 -122.2480 301° West 486 559 38,000  Level FlightAware ADS-B
Tue 04:30:27 PM 47.4088 -122.2510 301° West 486 559 38,000  Level FlightAware ADS-B
Tue 04:30:28 PM 47.4098 -122.2528 309° West 486 559 38,000  Level FlightAware ADS-B
Tue 04:30:29 PM 47.4110 -122.2560 300° West 485 558 38,000  Level FlightAware ADS-B
Tue 04:30:30 PM 47.4119 -122.2580 304° West 486 559 38,000  Level FlightAware ADS-B
Tue 04:30:31 PM 47.4131 -122.2610 301° West 486 559 38,000  Level FlightAware ADS-B
Tue 04:30:32 PM 47.4147 -122.2650 301° West 486 559 38,000  Level FlightAware ADS-B
Tue 04:30:33 PM 47.4158 -122.2670 309° West 486 559 38,000  Level FlightAware ADS-B
Tue 04:30:34 PM 47.4169 -122.2700 298° West 486 559 38,000  Level FlightAware ADS-B
Tue 04:30:35 PM 47.4181 -122.2730 301° West 486 559 38,000  Level FlightAware ADS-B
Tue 04:30:36 PM 47.4191 -122.2760 296° West 485 558 38,000  Level FlightAware ADS-B
Tue 04:30:37 PM 47.4200 -122.2780 304° West 485 558 38,000  Level FlightAware ADS-B
Tue 04:30:41 PM 47.4240 -122.2900 296° West 486 559 38,000  Level FlightAware ADS-B
Tue 04:30:43 PM 47.4268 -122.2980 297° West 485 558 38,000  Level FlightAware ADS-B
Tue 04:30:44 PM 47.4272 -122.2990 301° West 485 558 38,000  Level FlightAware ADS-B
Tue 04:30:45 PM 47.4282 -122.3020 296° West 485 558 38,000  Level FlightAware ADS-B
Tue 04:30:46 PM 47.4292 -122.3050 296° West 485 558 38,000  Level FlightAware ADS-B
Tue 04:30:47 PM 47.4303 -122.3080 298° West 486 559 38,000  Level FlightAware ADS-B
Tue 04:30:48 PM 47.4312 -122.3110 294° West 485 558 38,000  Level FlightAware ADS-B
Tue 04:30:49 PM 47.4321 -122.3150 288° West 485 558 38,000  Level FlightAware ADS-B
Tue 04:30:50 PM 47.4334 -122.3190 296° West 485 558 38,000  Level FlightAware ADS-B
Tue 04:30:51 PM 47.4339 -122.3210 290° West 485 558 38,000  Level FlightAware ADS-B
Tue 04:30:52 PM 47.4347 -122.3230 301° West 485 558 38,000  Level FlightAware ADS-B
Tue 04:30:53 PM 47.4355 -122.3260 292° West 486 559 38,000  Level FlightAware ADS-B
Tue 04:30:54 PM 47.4364 -122.3290 294° West 486 559 38,000  Level FlightAware ADS-B
Tue 04:30:55 PM 47.4372 -122.3321 291° West 485 558 38,000  Level FlightAware ADS-B (EGNM / LBA)
Tue 04:30:56 PM 47.4379 -122.3350 289° West 485 558 38,000  Level FlightAware ADS-B
Tue 04:30:57 PM 47.4392 -122.3400 291° West 486 559 38,000  Level FlightAware ADS-B
Tue 04:30:58 PM 47.4397 -122.3410 306° West 486 559 38,000  Level FlightAware ADS-B
Tue 04:30:59 PM 47.4403 -122.3440 286° West 486 559 38,000  Level FlightAware ADS-B
Tue 04:31:00 PM 47.4411 -122.3470 292° West 486 559 38,000  Level FlightAware ADS-B
Tue 04:31:01 PM 47.4419 -122.3500 292° West 486 559 38,000  Level FlightAware ADS-B
Tue 04:31:02 PM 47.4429 -122.3540 290° West 486 559 38,000  Level FlightAware ADS-B
Tue 04:31:03 PM 47.4437 -122.3580 286° West 486 559 38,000  Level FlightAware ADS-B
Tue 04:31:04 PM 47.4441 -122.3590 301° West 486 559 38,000  Level FlightAware ADS-B
Tue 04:31:05 PM 47.4448 -122.3626 287° West 486 559 38,000  Level FlightAware ADS-B (EGNM / LBA)
Tue 04:31:06 PM 47.4455 -122.3660 286° West 486 559 38,000  Level FlightAware ADS-B
Tue 04:31:07 PM 47.4466 -122.3710 288° West 486 559 38,000  Level FlightAware ADS-B
Tue 04:31:08 PM 47.4469 -122.3720 294° West 486 559 38,000  Level FlightAware ADS-B
Tue 04:31:09 PM 47.4478 -122.3760 288° West 486 559 38,000  Level FlightAware ADS-B
Tue 04:31:10 PM 47.4485 -122.3800 285° West 486 559 38,000  Level FlightAware ADS-B
Tue 04:31:11 PM 47.4493 -122.3840 286° West 487 560 38,000  Level FlightAware ADS-B
Tue 04:31:12 PM 47.4497 -122.3860 286° West 487 560 38,000  Level FlightAware ADS-B
Tue 04:31:13 PM 47.4504 -122.3900 285° West 487 560 38,000  Level FlightAware ADS-B
Tue 04:31:14 PM 47.4507 -122.3910 294° West 487 560 38,000  Level FlightAware ADS-B
Tue 04:31:15 PM 47.4514 -122.3950 285° West 486 559 38,000  Level FlightAware ADS-B
Tue 04:31:19 PM 47.4540 -122.4100 284° West 487 560 38,000  Level FlightAware ADS-B
Tue 04:31:22 PM 47.4558 -122.4200 285° West 486 559 38,000  Level FlightAware ADS-B
Tue 04:31:23 PM 47.4560 -122.4210 286° West 486 559 38,000  Level FlightAware ADS-B
Tue 04:31:24 PM 47.4566 -122.4240 286° West 486 559 38,000  Level FlightAware ADS-B
Tue 04:31:25 PM 47.4572 -122.4280 283° West 486 559 38,000  Level FlightAware ADS-B
Tue 04:31:26 PM 47.4576 -122.4300 286° West 486 559 38,000  Level FlightAware ADS-B
Tue 04:31:28 PM 47.4592 -122.4380 286° West 487 560 38,000  Level FlightAware ADS-B
Tue 04:31:29 PM 47.4594 -122.4400 278° West 487 560 38,000  Level FlightAware ADS-B
Tue 04:31:31 PM 47.4606 -122.4460 286° West 486 559 38,000  Level FlightAware ADS-B
Tue 04:31:32 PM 47.4613 -122.4500 285° West 486 559 38,000  Level FlightAware ADS-B
Tue 04:31:33 PM 47.4619 -122.4530 286° West 486 559 38,000  Level FlightAware ADS-B
Tue 04:31:34 PM 47.4625 -122.4560 286° West 486 559 38,000  Level FlightAware ADS-B
Tue 04:31:35 PM 47.4633 -122.4610 283° West 486 559 38,000  Level FlightAware ADS-B
Tue 04:31:36 PM 47.4640 -122.4650 285° West 486 559 38,000  Level FlightAware ADS-B
Tue 04:31:37 PM 47.4644 -122.4670 286° West 486 559 38,000  Level FlightAware ADS-B
Tue 04:31:38 PM 47.4650 -122.4700 286° West 486 559 38,000  Level FlightAware ADS-B
Tue 04:31:39 PM 47.4653 -122.4720 283° West 486 559 38,000  Level FlightAware ADS-B
Tue 04:31:40 PM 47.4659 -122.4750 286° West 486 559 38,000  Level FlightAware ADS-B
Tue 04:31:41 PM 47.4665 -122.4780 286° West 486 559 38,000  Level FlightAware ADS-B
Tue 04:31:42 PM 47.4671 -122.4810 286° West 486 559 38,000  Level FlightAware ADS-B
Tue 04:31:43 PM 47.4677 -122.4850 283° West 486 559 38,000  Level FlightAware ADS-B
Tue 04:31:44 PM 47.4682 -122.4870 290° West 486 559 38,000  Level FlightAware ADS-B
Tue 04:31:45 PM 47.4694 -122.4930 286° West 486 559 38,000  Level FlightAware ADS-B
Tue 04:31:47 PM 47.4703 -122.4990 283° West 486 559 38,000  Level FlightAware ADS-B
Tue 04:31:48 PM 47.4709 -122.5020 286° West 486 559 38,000  Level FlightAware ADS-B
Tue 04:31:49 PM 47.4715 -122.5050 286° West 486 559 38,000  Level FlightAware ADS-B
Tue 04:31:50 PM 47.4718 -122.5070 283° West 486 559 38,000  Level FlightAware ADS-B
Tue 04:31:51 PM 47.4724 -122.5100 286° West 486 559 38,000  Level FlightAware ADS-B
Tue 04:31:52 PM 47.4729 -122.5130 284° West 486 559 38,000  Level FlightAware ADS-B
Tue 04:31:53 PM 47.4735 -122.5160 286° West 486 559 38,000  Level FlightAware ADS-B
Tue 04:31:54 PM 47.4741 -122.5190 286° West 486 559 38,000  Level FlightAware ADS-B
Tue 04:31:55 PM 47.4747 -122.5220 286° West 486 559 38,000  Level FlightAware ADS-B
Tue 04:31:56 PM 47.4756 -122.5270 285° West 486 559 38,000  Level FlightAware ADS-B
Tue 04:31:57 PM 47.4760 -122.5290 286° West 486 559 38,000  Level FlightAware ADS-B
Tue 04:31:58 PM 47.4765 -122.5320 284° West 486 559 38,000  Level FlightAware ADS-B
Tue 04:31:59 PM 47.4772 -122.5360 285° West 486 559 38,000  Level FlightAware ADS-B
Tue 04:32:00 PM 47.4777 -122.5390 284° West 486 559 38,000  Level FlightAware ADS-B
Tue 04:32:01 PM 47.4783 -122.5420 286° West 486 559 38,000  Level FlightAware ADS-B
Tue 04:32:02 PM 47.4788 -122.5450 284° West 486 559 38,000  Level FlightAware ADS-B
Tue 04:32:03 PM 47.4798 -122.5500 286° West 486 559 38,000  Level FlightAware ADS-B
Tue 04:32:04 PM 47.4802 -122.5520 286° West 486 559 38,000  Level FlightAware ADS-B
Tue 04:32:05 PM 47.4808 -122.5550 286° West 486 559 38,000  Level FlightAware ADS-B
Tue 04:32:06 PM 47.4814 -122.5590 283° West 486 559 38,000  Level FlightAware ADS-B
Tue 04:32:07 PM 47.4819 -122.5610 290° West 486 559 38,000  Level FlightAware ADS-B
Tue 04:32:08 PM 47.4825 -122.5650 283° West 486 559 38,000  Level FlightAware ADS-B
Tue 04:32:09 PM 47.4830 -122.5680 284° West 486 559 38,000  Level FlightAware ADS-B
Tue 04:32:10 PM 47.4841 -122.5730 288° West 486 559 38,000  Level FlightAware ADS-B
Tue 04:32:11 PM 47.4843 -122.5750 278° West 486 559 38,000  Level FlightAware ADS-B
Tue 04:32:12 PM 47.4846 -122.5770 283° West 486 559 38,000  Level FlightAware ADS-B
Tue 04:32:13 PM 47.4855 -122.5810 288° West 486 559 38,000  Level FlightAware ADS-B
Tue 04:32:14 PM 47.4861 -122.5840 286° West 486 559 38,000  Level FlightAware ADS-B
Tue 04:32:15 PM 47.4867 -122.5870 286° West 486 559 38,000  Level FlightAware ADS-B
Tue 04:32:16 PM 47.4875 -122.5920 283° West 486 559 38,000  Level FlightAware ADS-B
Tue 04:32:17 PM 47.4878 -122.5940 283° West 486 559 38,000  Level FlightAware ADS-B
Tue 04:32:18 PM 47.4884 -122.5970 286° West 486 559 38,000  Level FlightAware ADS-B
Tue 04:32:19 PM 47.4890 -122.6000 286° West 486 559 38,000  Level FlightAware ADS-B
Tue 04:32:20 PM 47.4897 -122.6040 285° West 486 559 38,000  Level FlightAware ADS-B
Tue 04:32:21 PM 47.4901 -122.6060 286° West 487 560 38,000  Level FlightAware ADS-B
Tue 04:32:22 PM 47.4906 -122.6090 284° West 487 560 38,000  Level FlightAware ADS-B
Tue 04:32:23 PM 47.4911 -122.6120 284° West 487 560 38,000  Level FlightAware ADS-B
Tue 04:32:24 PM 47.4919 -122.6160 286° West 487 560 38,000  Level FlightAware ADS-B
Tue 04:32:25 PM 47.4928 -122.6207 285° West 487 560 38,000  Level FlightAware ADS-B (EGNM / LBA)
Tue 04:32:26 PM 47.4933 -122.6240 283° West 487 560 38,000  Level FlightAware ADS-B
Tue 04:32:27 PM 47.4937 -122.6260 286° West 487 560 38,000  Level FlightAware ADS-B
Tue 04:32:28 PM 47.4945 -122.6300 286° West 487 560 38,000  Level FlightAware ADS-B
Tue 04:32:29 PM 47.4948 -122.6320 283° West 487 560 38,000  Level FlightAware ADS-B
Tue 04:32:30 PM 47.4953 -122.6350 284° West 487 560 38,000  Level FlightAware ADS-B
Tue 04:32:31 PM 47.4959 -122.6380 286° West 487 560 38,000  Level FlightAware ADS-B
Tue 04:32:32 PM 47.4965 -122.6410 286° West 487 560 38,000  Level FlightAware ADS-B
Tue 04:32:33 PM 47.4971 -122.6440 286° West 487 560 38,000  Level FlightAware ADS-B
Tue 04:32:34 PM 47.4976 -122.6470 284° West 487 560 38,000  Level FlightAware ADS-B
Tue 04:32:35 PM 47.4982 -122.6510 283° West 487 560 38,000  Level FlightAware ADS-B
Tue 04:32:36 PM 47.4988 -122.6540 286° West 487 560 38,000  Level FlightAware ADS-B
Tue 04:32:37 PM 47.4993 -122.6570 284° West 487 560 38,000  Level FlightAware ADS-B
Tue 04:32:38 PM 47.4999 -122.6600 286° West 487 560 38,000  Level FlightAware ADS-B
Tue 04:32:39 PM 47.5005 -122.6630 286° West 487 560 38,000  Level FlightAware ADS-B
Tue 04:32:40 PM 47.5011 -122.6660 286° West 487 560 38,000  Level FlightAware ADS-B
Tue 04:32:41 PM 47.5020 -122.6710 285° West 487 560 38,000  Level FlightAware ADS-B
Tue 04:32:42 PM 47.5022 -122.6730 278° West 487 560 38,000  Level FlightAware ADS-B
Tue 04:32:43 PM 47.5029 -122.6760 289° West 487 560 38,000  Level FlightAware ADS-B
Tue 04:32:44 PM 47.5035 -122.6800 283° West 487 560 38,000  Level FlightAware ADS-B
Tue 04:32:45 PM 47.5043 -122.6840 286° West 487 560 38,000  Level FlightAware ADS-B
Tue 04:32:46 PM 47.5046 -122.6850 294° West 487 560 38,000  Level FlightAware ADS-B
Tue 04:32:47 PM 47.5052 -122.6890 283° West 487 560 38,000  Level FlightAware ADS-B
Tue 04:32:48 PM 47.5058 -122.6920 286° West 487 560 38,000  Level FlightAware ADS-B
Tue 04:32:49 PM 47.5067 -122.6970 285° West 487 560 38,000  Level FlightAware ADS-B
Tue 04:32:50 PM 47.5073 -122.7000 286° West 487 560 38,000  Level FlightAware ADS-B
Tue 04:32:51 PM 47.5077 -122.7030 281° West 487 560 38,000  Level FlightAware ADS-B
Tue 04:32:52 PM 47.5083 -122.7060 286° West 487 560 38,000  Level FlightAware ADS-B
Tue 04:32:53 PM 47.5088 -122.7090 284° West 487 560 38,000  Level FlightAware ADS-B
Tue 04:32:54 PM 47.5095 -122.7120 289° West 487 560 38,000  Level FlightAware ADS-B
Tue 04:32:55 PM 47.5101 -122.7160 283° West 488 562 38,000  Level FlightAware ADS-B
Tue 04:32:57 PM 47.5112 -122.7220 285° West 488 562 38,000  Level FlightAware ADS-B
Tue 04:32:58 PM 47.5118 -122.7250 286° West 488 562 38,000  Level FlightAware ADS-B
Tue 04:33:00 PM 47.5130 -122.7320 284° West 488 562 38,000  Level FlightAware ADS-B
Tue 04:33:01 PM 47.5134 -122.7340 286° West 488 562 38,000  Level FlightAware ADS-B
Tue 04:33:02 PM 47.5141 -122.7380 285° West 488 562 38,000  Level FlightAware ADS-B
Tue 04:33:03 PM 47.5146 -122.7410 284° West 488 562 38,000  Level FlightAware ADS-B
Tue 04:33:04 PM 47.5151 -122.7430 290° West 488 562 38,000  Level FlightAware ADS-B
Tue 04:33:05 PM 47.5156 -122.7460 284° West 488 562 38,000  Level FlightAware ADS-B
Tue 04:33:06 PM 47.5165 -122.7510 285° West 488 562 38,000  Level FlightAware ADS-B
Tue 04:33:08 PM 47.5174 -122.7560 285° West 488 562 38,000  Level FlightAware ADS-B
Tue 04:33:09 PM 47.5180 -122.7590 286° West 488 562 38,000  Level FlightAware ADS-B
Tue 04:33:10 PM 47.5186 -122.7620 286° West 488 562 38,000  Level FlightAware ADS-B
Tue 04:33:11 PM 47.5191 -122.7660 280° West 488 562 38,000  Level FlightAware ADS-B
Tue 04:33:12 PM 47.5203 -122.7720 286° West 488 562 38,000  Level FlightAware ADS-B
Tue 04:33:13 PM 47.5208 -122.7750 284° West 488 562 38,000  Level FlightAware ADS-B
Tue 04:33:14 PM 47.5214 -122.7780 286° West 488 562 38,000  Level FlightAware ADS-B
Tue 04:33:15 PM 47.5217 -122.7800 283° West 488 562 38,000  Level FlightAware ADS-B
Tue 04:33:17 PM 47.5229 -122.7860 286° West 488 562 38,000  Level FlightAware ADS-B
Tue 04:33:18 PM 47.5236 -122.7910 282° West 487 560 38,000  Level FlightAware ADS-B
Tue 04:33:19 PM 47.5242 -122.7940 286° West 488 562 38,000  Level FlightAware ADS-B
Tue 04:33:22 PM 47.5260 -122.8040 285° West 486 559 38,000  Level FlightAware ADS-B
Tue 04:33:23 PM 47.5266 -122.8070 286° West 487 560 38,000  Level FlightAware ADS-B
Tue 04:33:24 PM 47.5270 -122.8090 286° West 487 560 38,000  Level FlightAware ADS-B
Tue 04:33:25 PM 47.5274 -122.8110 286° West 487 560 38,000  Level FlightAware ADS-B
Tue 04:33:26 PM 47.5283 -122.8160 285° West 487 560 38,000  Level FlightAware ADS-B
Tue 04:33:27 PM 47.5289 -122.8200 283° West 487 560 38,000  Level FlightAware ADS-B
Tue 04:33:28 PM 47.5295 -122.8230 287° West 487 560 38,000  Level FlightAware ADS-B
Tue 04:33:29 PM 47.5300 -122.8260 284° West 486 559 38,000  Level FlightAware ADS-B
Tue 04:33:32 PM 47.5313 -122.8330 285° West 487 560 38,000  Level FlightAware ADS-B
Tue 04:33:33 PM 47.5319 -122.8360 287° West 486 559 38,000  Level FlightAware ADS-B
Tue 04:33:37 PM 47.5343 -122.8500 284° West 486 559 38,000  Level FlightAware ADS-B
Tue 04:33:38 PM 47.5349 -122.8530 287° West 486 559 38,000  Level FlightAware ADS-B
Tue 04:33:39 PM 47.5354 -122.8560 284° West 486 559 38,000  Level FlightAware ADS-B
Tue 04:33:40 PM 47.5359 -122.8590 284° West 486 559 38,000  Level FlightAware ADS-B
Tue 04:33:41 PM 47.5365 -122.8620 287° West 486 559 38,000  Level FlightAware ADS-B
Tue 04:33:42 PM 47.5373 -122.8660 287° West 486 559 38,000  Level FlightAware ADS-B
Tue 04:33:43 PM 47.5377 -122.8680 287° West 486 559 38,000  Level FlightAware ADS-B
Tue 04:33:44 PM 47.5385 -122.8730 283° West 486 559 38,000  Level FlightAware ADS-B
Tue 04:33:45 PM 47.5393 -122.8770 287° West 486 559 38,000  Level FlightAware ADS-B
Tue 04:33:46 PM 47.5397 -122.8800 281° West 486 559 38,000  Level FlightAware ADS-B
Tue 04:33:47 PM 47.5403 -122.8830 287° West 486 559 38,000  Level FlightAware ADS-B
Tue 04:33:49 PM 47.5415 -122.8890 287° West 486 559 38,000  Level FlightAware ADS-B
Tue 04:33:50 PM 47.5421 -122.8930 283° West 486 559 38,000  Level FlightAware ADS-B
Tue 04:33:51 PM 47.5426 -122.8960 284° West 486 559 38,000  Level FlightAware ADS-B
Tue 04:33:52 PM 47.5432 -122.8990 287° West 486 559 38,000  Level FlightAware ADS-B
Tue 04:33:53 PM 47.5438 -122.9020 287° West 486 559 38,000  Level FlightAware ADS-B
Tue 04:33:54 PM 47.5445 -122.9060 285° West 486 559 38,000  Level FlightAware ADS-B
Tue 04:33:55 PM 47.5449 -122.9090 281° West 486 559 38,000  Level FlightAware ADS-B
Tue 04:33:56 PM 47.5455 -122.9120 287° West 486 559 38,000  Level FlightAware ADS-B
Tue 04:33:57 PM 47.5461 -122.9150 287° West 486 559 38,000  Level FlightAware ADS-B
Tue 04:33:58 PM 47.5465 -122.9180 281° West 486 559 38,000  Level FlightAware ADS-B
Tue 04:33:59 PM 47.5472 -122.9220 285° West 486 559 38,000  Level FlightAware ADS-B
Tue 04:34:00 PM 47.5478 -122.9250 287° West 486 559 38,000  Level FlightAware ADS-B
Tue 04:34:01 PM 47.5485 -122.9290 285° West 486 559 38,000  Level FlightAware ADS-B
Tue 04:34:02 PM 47.5490 -122.9310 290° West 486 559 38,000  Level FlightAware ADS-B
Tue 04:34:03 PM 47.5494 -122.9340 281° West 486 559 38,000  Level FlightAware ADS-B
Tue 04:34:04 PM 47.5500 -122.9370 287° West 486 559 38,000  Level FlightAware ADS-B
Tue 04:34:05 PM 47.5506 -122.9400 287° West 486 559 38,000  Level FlightAware ADS-B
Tue 04:34:06 PM 47.5513 -122.9440 285° West 486 559 38,000  Level FlightAware ADS-B
Tue 04:34:07 PM 47.5518 -122.9470 284° West 486 559 38,000  Level FlightAware ADS-B
Tue 04:34:08 PM 47.5524 -122.9500 287° West 486 559 38,000  Level FlightAware ADS-B
Tue 04:34:10 PM 47.5534 -122.9560 284° West 486 559 38,000  Level FlightAware ADS-B
Tue 04:34:11 PM 47.5541 -122.9600 285° West 486 559 38,000  Level FlightAware ADS-B
Tue 04:34:12 PM 47.5547 -122.9630 287° West 487 560 38,000  Level FlightAware ADS-B
Tue 04:34:13 PM 47.5553 -122.9670 283° West 486 559 38,000  Level FlightAware ADS-B
Tue 04:34:14 PM 47.5560 -122.9700 289° West 487 560 38,000  Level FlightAware ADS-B
Tue 04:34:15 PM 47.5564 -122.9730 281° West 487 560 38,000  Level FlightAware ADS-B
Tue 04:34:16 PM 47.5570 -122.9760 287° West 486 559 38,000  Level FlightAware ADS-B
Tue 04:34:17 PM 47.5576 -122.9790 287° West 487 560 38,000  Level FlightAware ADS-B
Tue 04:34:18 PM 47.5581 -122.9830 280° West 487 560 38,000  Level FlightAware ADS-B
Tue 04:34:19 PM 47.5588 -122.9860 289° West 487 560 38,000  Level FlightAware ADS-B
Tue 04:34:20 PM 47.5594 -122.9900 283° West 487 560 38,000  Level FlightAware ADS-B
Tue 04:34:21 PM 47.5600 -122.9930 287° West 487 560 38,000  Level FlightAware ADS-B
Tue 04:34:22 PM 47.5606 -122.9960 287° West 487 560 38,000  Level FlightAware ADS-B
Tue 04:34:23 PM 47.5611 -122.9990 284° West 487 560 38,000  Level FlightAware ADS-B
Tue 04:34:24 PM 47.5617 -123.0030 283° West 487 560 38,000  Level FlightAware ADS-B
Tue 04:34:25 PM 47.5619 -123.0038 292° West 487 560 38,000  Level FlightAware ADS-B (EGNM / LBA)
Tue 04:34:26 PM 47.5628 -123.0090 284° West 487 560 38,000  Level FlightAware ADS-B
Tue 04:34:28 PM 47.5640 -123.0150 287° West 487 560 38,000  Level FlightAware ADS-B
Tue 04:34:29 PM 47.5644 -123.0180 281° West 487 560 38,000  Level FlightAware ADS-B
Tue 04:34:33 PM 47.5667 -123.0310 285° West 487 560 38,000  Level FlightAware ADS-B
Tue 04:34:34 PM 47.5672 -123.0330 290° West 487 560 38,000  Level FlightAware ADS-B
Tue 04:34:35 PM 47.5678 -123.0370 283° West 487 560 38,000  Level FlightAware ADS-B
Tue 04:34:36 PM 47.5682 -123.0390 287° West 487 560 38,000  Level FlightAware ADS-B
Tue 04:34:37 PM 47.5689 -123.0430 284° West 485 558 38,000  Level FlightAware ADS-B
Tue 04:34:38 PM 47.5695 -123.0460 287° West 487 560 38,000  Level FlightAware ADS-B
Tue 04:34:41 PM 47.5713 -123.0560 285° West 487 560 38,000  Level FlightAware ADS-B
Tue 04:34:42 PM 47.5718 -123.0590 284° West 487 560 38,000  Level FlightAware ADS-B
Tue 04:34:43 PM 47.5723 -123.0620 284° West 487 560 38,000  Level FlightAware ADS-B
Tue 04:34:45 PM 47.5735 -123.0690 284° West 487 560 38,000  Level FlightAware ADS-B
Tue 04:34:48 PM 47.5752 -123.0780 286° West 487 560 38,000  Level FlightAware ADS-B
Tue 04:34:49 PM 47.5757 -123.0810 284° West 487 560 38,000  Level FlightAware ADS-B
Tue 04:34:54 PM 47.5787 -123.0983 285° West 485 558 38,000  Level FlightAware ADS-B
Tue 04:34:56 PM 47.5796 -123.1030 286° West 487 560 38,000  Level FlightAware ADS-B
Tue 04:34:58 PM 47.5810 -123.1110 285° West 487 560 38,000  Level FlightAware ADS-B
Tue 04:35:01 PM 47.5827 -123.1210 284° West 487 560 38,000  Level FlightAware ADS-B
Tue 04:35:05 PM 47.5849 -123.1331 285° West 487 560 38,000  Level FlightAware ADS-B (EGNM / LBA)
Tue 04:35:07 PM 47.5864 -123.1410 286° West 488 562 38,000  Level FlightAware ADS-B
Tue 04:35:10 PM 47.5876 -123.1480 284° West 487 560 38,000  Level FlightAware ADS-B
Tue 04:35:12 PM 47.5892 -123.1580 283° West 488 562 38,000  Level FlightAware ADS-B
Tue 04:35:14 PM 47.5901 -123.1620 288° West 488 562 38,000  Level FlightAware ADS-B
Tue 04:35:21 PM 47.5941 -123.1850 284° West 488 562 38,000  Level FlightAware ADS-B
Tue 04:35:25 PM 47.5965 -123.1990 284° West 488 562 38,000  Level FlightAware ADS-B
Tue 04:35:30 PM 47.5990 -123.2120 286° West 488 562 38,000  Level FlightAware ADS-B
Tue 04:35:32 PM 47.6002 -123.2190 284° West 488 562 38,000  Level FlightAware ADS-B
Tue 04:35:34 PM 47.6013 -123.2260 283° West 488 562 38,000  Level FlightAware ADS-B
Tue 04:35:35 PM 47.6019 -123.2290 287° West 488 562 38,000  Level FlightAware ADS-B
Tue 04:35:55 PM 47.6128 -123.2909 285° West 488 562 38,000  Level FlightAware ADS-B (EGNM / LBA)
Tue 04:36:00 PM 47.6164 -123.3120 284° West 488 562 38,000  Level FlightAware ADS-B
Tue 04:36:01 PM 47.6166 -123.3130 287° West 488 562 38,000  Level FlightAware ADS-B
Tue 04:36:02 PM 47.6172 -123.3160 287° West 488 562 38,000  Level FlightAware ADS-B
Tue 04:36:03 PM 47.6178 -123.3190 287° West 488 562 38,000  Level FlightAware ADS-B
Tue 04:36:04 PM 47.6187 -123.3240 285° West 488 562 38,000  Level FlightAware ADS-B
Tue 04:36:05 PM 47.6190 -123.3260 283° West 488 562 38,000  Level FlightAware ADS-B
Tue 04:36:07 PM 47.6201 -123.3330 283° West 488 562 38,000  Level FlightAware ADS-B
Tue 04:36:19 PM 47.6271 -123.3730 285° West 488 562 38,000  Level FlightAware ADS-B
Tue 04:36:21 PM 47.6282 -123.3790 285° West 488 562 38,000  Level FlightAware ADS-B
Tue 04:36:22 PM 47.6284 -123.3800 287° West 488 562 38,000  Level FlightAware ADS-B
Tue 04:36:25 PM 47.6304 -123.3920 284° West 488 562 38,000  Level FlightAware ADS-B
Tue 04:36:27 PM 47.6318 -123.3990 287° West 488 562 38,000  Level FlightAware ADS-B
Tue 04:36:30 PM 47.6330 -123.4060 284° West 488 562 38,000  Level FlightAware ADS-B
Tue 04:36:31 PM 47.6338 -123.4110 283° West 488 562 38,000  Level FlightAware ADS-B
Tue 04:36:37 PM 47.6370 -123.4290 285° West 486 559 38,000  Level FlightAware ADS-B
Tue 04:36:38 PM 47.6377 -123.4340 283° West 488 562 38,000  Level FlightAware ADS-B
Tue 04:36:44 PM 47.6411 -123.4530 285° West 488 562 38,000  Level FlightAware ADS-B
Tue 04:36:46 PM 47.6424 -123.4600 285° West 488 562 38,000  Level FlightAware ADS-B
Tue 04:36:47 PM 47.6427 -123.4620 283° West 488 562 38,000  Level FlightAware ADS-B
Tue 04:36:53 PM 47.6463 -123.4830 284° West 488 562 38,000  Level FlightAware ADS-B
Tue 04:36:55 PM 47.6474 -123.4889 286° West 488 562 38,000  Level FlightAware ADS-B (EGNM / LBA)
Tue 04:36:58 PM 47.6488 -123.4970 284° West 488 562 38,000  Level FlightAware ADS-B
Tue 04:36:59 PM 47.6497 -123.5020 285° West 488 562 38,000  Level FlightAware ADS-B
Tue 04:37:11 PM 47.6562 -123.5390 285° West 488 562 38,000  Level FlightAware ADS-B
Tue 04:37:13 PM 47.6572 -123.5450 284° West 488 562 38,000  Level FlightAware ADS-B
Tue 04:37:16 PM 47.6589 -123.5550 284° West 488 562 38,000  Level FlightAware ADS-B
Tue 04:37:18 PM 47.6602 -123.5630 284° West 488 562 38,000  Level FlightAware ADS-B
Tue 04:37:20 PM 47.6611 -123.5680 285° West 488 562 38,000  Level FlightAware ADS-B
Tue 04:37:24 PM 47.6637 -123.5830 284° West 488 562 38,000  Level FlightAware ADS-B
Tue 04:37:27 PM 47.6650 -123.5900 285° West 488 562 38,000  Level FlightAware ADS-B
Tue 04:37:30 PM 47.6670 -123.6020 284° West 488 562 38,000  Level FlightAware ADS-B
Tue 04:37:35 PM 47.6694 -123.6156 284° West 488 562 38,000  Level FlightAware ADS-B (EGNM / LBA)
Tue 04:37:38 PM 47.6711 -123.6260 284° West 488 562 38,000  Level FlightAware ADS-B
Tue 04:37:47 PM 47.6760 -123.6540 285° West 488 562 38,000  Level FlightAware ADS-B
Tue 04:37:48 PM 47.6766 -123.6580 283° West 488 562 38,000  Level FlightAware ADS-B
Tue 04:37:49 PM 47.6772 -123.6610 287° West 488 562 38,000  Level FlightAware ADS-B
Tue 04:37:54 PM 47.6804 -123.6800 284° West 488 562 38,000  Level FlightAware ADS-B
Tue 04:37:58 PM 47.6824 -123.6910 285° West 488 562 38,000  Level FlightAware ADS-B
Tue 04:37:59 PM 47.6833 -123.6970 283° West 488 562 38,000  Level FlightAware ADS-B
Tue 04:38:01 PM 47.6843 -123.7020 287° West 488 562 38,000  Level FlightAware ADS-B
Tue 04:38:19 PM 47.6943 -123.7600 284° West 487 560 38,000  Level FlightAware ADS-B
Tue 04:38:22 PM 47.6956 -123.7680 284° West 487 560 38,000  Level FlightAware ADS-B
Tue 04:38:23 PM 47.6965 -123.7730 285° West 487 560 38,000  Level FlightAware ADS-B
Tue 04:38:24 PM 47.6972 -123.7770 285° West 487 560 38,000  Level FlightAware ADS-B
Tue 04:38:27 PM 47.6984 -123.7840 284° West 487 560 38,000  Level FlightAware ADS-B
Tue 04:38:28 PM 47.6989 -123.7880 281° West 487 560 38,000  Level FlightAware ADS-B
Tue 04:38:34 PM 47.7023 -123.8070 285° West 487 560 38,000  Level FlightAware ADS-B
Tue 04:38:35 PM 47.7028 -123.8102 283° West 487 560 38,000  Level FlightAware ADS-B (EGNM / LBA)
Tue 04:38:48 PM 47.7103 -123.8540 284° West 487 560 38,000  Level FlightAware ADS-B
Tue 04:38:59 PM 47.7162 -123.8890 284° West 487 560 38,000  Level FlightAware ADS-B
Tue 04:39:02 PM 47.7181 -123.9000 284° West 487 560 38,000  Level FlightAware ADS-B
Tue 04:39:05 PM 47.7193 -123.9070 284° West 487 560 38,000  Level FlightAware ADS-B
Tue 04:39:06 PM 47.7202 -123.9120 285° West 487 560 38,000  Level FlightAware ADS-B
Tue 04:39:10 PM 47.7220 -123.9230 284° West 487 560 38,000  Level FlightAware ADS-B
Tue 04:39:13 PM 47.7239 -123.9344 284° West 485 558 38,000  Level FlightAware ADS-B
Tue 04:39:29 PM 47.7329 -123.9870 284° West 487 560 38,000  Level FlightAware ADS-B
Tue 04:39:34 PM 47.7352 -124.0010 284° West 487 560 38,000  Level FlightAware ADS-B
Tue 04:39:37 PM 47.7369 -124.0110 284° West 487 560 38,000  Level FlightAware ADS-B
Tue 04:39:42 PM 47.7399 -124.0290 284° West 487 560 38,000  Level FlightAware ADS-B
Tue 04:39:46 PM 47.7417 -124.0400 284° West 487 560 38,000  Level FlightAware ADS-B
Tue 04:39:50 PM 47.7442 -124.0540 285° West 487 560 38,000  Level FlightAware ADS-B
Tue 04:40:07 PM 47.7533 -124.1084 284° West 488 562 38,000  Level FlightAware ADS-B
Tue 04:40:11 PM 47.7553 -124.1210 283° West 487 560 38,000  Level FlightAware ADS-B
Tue 04:40:14 PM 47.7568 -124.1292 285° West 488 562 38,000  Level FlightAware ADS-B (EGNM / LBA)
Tue 04:40:15 PM 47.7575 -124.1340 283° West 487 560 38,000  Level FlightAware ADS-B
Tue 04:40:18 PM 47.7591 -124.1430 285° West 487 560 38,000  Level FlightAware ADS-B
Tue 04:40:28 PM 47.7617 -124.1590 284° West 487 560 38,000  Level FlightAware ADS-B (EGNM / LBA)
Tue 04:41:05 PM 47.7846 -124.2960 284° West 488 562 38,000  Level FlightAware ADS-B
Tue 04:41:06 PM 47.7852 -124.2999 283° West 488 562 38,000  Level FlightAware ADS-B
Tue 04:41:21 PM 47.7931 -124.3470 284° West 489 563 38,000  Level FlightAware ADS-B
Tue 04:41:24 PM 47.7949 -124.3580 284° West 489 563 38,000  Level FlightAware ADS-B
Tue 04:41:25 PM 47.7955 -124.3620 283° West 489 563 38,000  Level FlightAware ADS-B
Tue 04:41:29 PM 47.7975 -124.3740 284° West 489 563 38,000  Level FlightAware ADS-B
Tue 04:42:34 PM 47.8324 -124.5870 284° West 488 562 38,000  Level FlightAware ADS-B
Tue 04:42:37 PM 47.8339 -124.5960 284° West 488 562 38,000  Level FlightAware ADS-B
Tue 04:42:39 PM 47.8349 -124.6020 284° West 488 562 38,000  Level FlightAware ADS-B
Tue 04:42:48 PM 47.8397 -124.6310 284° West 488 562 38,000  Level FlightAware ADS-B
Tue 04:42:53 PM 47.8423 -124.6480 283° West 488 562 38,000  Level FlightAware ADS-B
Tue 04:42:55 PM 47.8434 -124.6540 285° West 488 562 38,000  Level FlightAware ADS-B
Tue 04:43:25 PM 47.8590 -124.7510 284° West 487 560 38,000  Level FlightAware ADS-B
Tue 04:44:09 PM 47.8825 -124.8963 284° West 488 562 38,000  Level FlightAware ADS-B
Tue 04:45:09 PM 47.9130 -125.0880 283° West 488 562 38,000  Level FlightAware ADS-B
Tue 04:45:23 PM 47.9211 -125.1392 283° West 488 562 38,000  Level FlightAware ADS-B
Tue 04:45:49 PM 47.9342 -125.2230 283° West 488 562 38,000  Level FlightAware ADS-B
Tue 04:46:14 PM 47.9472 -125.3060 283° West 489 563 38,000  Level FlightAware ADS-B
Tue 04:46:43 PM 47.9614 -125.3968 283° West 489 563 38,000  Level FlightAware ADS-B (EGNM / LBA)
Tue 04:49:28 PM 48.0430 -125.9330 283° West 490 564 38,000  Level FlightAware ADS-B
Tue 04:54:13 PM 48.1810 -126.8780 283° West 489 563 38,000  Level FlightAware ADS-B
Tue 04:57:23 PM 48.2660 -127.4950 282° West 491 565 38,000  Level FlightAware ADS-B
Tue 04:58:19 PM 48.2910 -127.6760 282° West 490 564 38,000  Level FlightAware ADS-B
Tue 05:01:56 PM 48.3780 -128.2910 282° West 490 564 38,000  Level FlightAware ADS-B
Tue 05:03:16 PM 48.5167 -128.6167 282° West 480 552 38,000  Level Vancouver Center
Tue 05:04:16 PM 48.5833 -128.8000 299° West 490 564 38,000  Level Vancouver Center
Tue 05:05:16 PM 48.6333 -128.9833 292° West 480 552 38,000  Level Vancouver Center
Tue 05:06:16 PM 48.7000 -129.1667 299° West 480 552 38,000  Level Vancouver Center
Tue 05:07:16 PM 48.7667 -129.3500 299° West 490 564 38,000  Level Vancouver Center
Tue 05:08:16 PM 48.8333 -129.5333 299° West 490 564 38,000  Level Vancouver Center
Tue 05:09:16 PM 48.8833 -129.7167 293° West 480 552 38,000  Level Vancouver Center
Tue 05:10:16 PM 48.9500 -129.9000 299° West 480 552 38,000  Level Vancouver Center
Tue 05:11:16 PM 49.0000 -130.0833 293° West 480 552 38,000  Level Vancouver Center
Tue 05:12:16 PM 49.0333 -130.2667 286° West 480 552 38,000  Level Vancouver Center
Tue 05:13:16 PM 49.1000 -130.4500 299° West 480 552 38,000  Level Vancouver Center
Tue 05:14:16 PM 49.1333 -130.6667 283° West 480 552 38,000  Level Vancouver Center
Tue 05:15:16 PM 49.1833 -130.8333 295° West 470 541 38,000  Level Vancouver Center
Tue 05:16:16 PM 49.2333 -131.0333 291° West 470 541 38,000  Level Vancouver Center
Tue 05:17:16 PM 49.2833 -131.2333 291° West 470 541 38,000  Level Vancouver Center
Tue 05:18:16 PM 49.3167 -131.4167 286° West 470 541 38,000  Level Vancouver Center
Tue 05:19:16 PM 49.3500 -131.6000 286° West 470 541 38,000  Level Vancouver Center
Tue 05:20:16 PM 49.4167 -131.7833 299° West 470 541 38,000  Level Vancouver Center
Tue 05:21:16 PM 49.4500 -131.9667 286° West 440 506 38,000  Level Vancouver Center
Tue 05:22:16 PM 49.4833 -132.1667 284° West 460 529 38,000  Level Vancouver Center
Tue 05:24:16 PM 49.6000 -132.5500 295° West 500 575 38,000  Level Vancouver Center
Tue 05:26:25 PM 49.6833 -132.9500 288° West 430 495 38,000  Level Vancouver Center
Tue 05:27:25 PM 49.7000 -133.1333 278° West 450 518 38,000  Level Vancouver Center
Tue 05:29:50 PM 49.8167 -133.5333 288° West 466 536 38,000  Level Oakland Oceanic (ODAPS)
Tue 05:34:57 PM 50.0333 -134.5000 288° West 467 537 38,000  Level Oakland Oceanic (ODAPS)
Tue 05:36:00 PM 50.0582 -134.6845 288° West 466 536 38,000  Level FlightAware Transoceanic
Tue 05:37:00 PM 50.0974 -134.8775 287° West 466 536 38,000  Level FlightAware Transoceanic
Tue 05:38:00 PM 50.1362 -135.0708 287° West 466 536 38,000  Level FlightAware Transoceanic
Tue 05:39:00 PM 50.1747 -135.2644 287° West 466 536 38,000  Level FlightAware Transoceanic
Tue 05:40:00 PM 50.2129 -135.4583 287° West 466 536 38,000  Level FlightAware Transoceanic
Tue 05:41:00 PM 50.2621 -135.6593 287° West 467 537 38,000  Level FlightAware Transoceanic
Tue 05:42:00 PM 50.2991 -135.8535 287° West 467 537 38,000  Level FlightAware Transoceanic
Tue 05:43:00 PM 50.3358 -136.0481 286° West 467 537 38,000  Level FlightAware Transoceanic
Tue 05:44:00 PM 50.3722 -136.2430 286° West 467 537 38,000 952 Level FlightAware Transoceanic
Tue 05:44:03 PM 50.3500 -136.1667 286° West 464 534 39,000  Climbing Oakland Oceanic (ODAPS)
Tue 05:45:00 PM 50.4082 -136.4382 286° West 467 537 38,000 -513 Descending FlightAware Transoceanic
Tue 05:46:00 PM 50.4439 -136.6336 286° West 467 537 38,000  Level FlightAware Transoceanic
Tue 05:47:00 PM 50.4793 -136.8294 286° West 467 537 38,000  Level FlightAware Transoceanic
Tue 05:48:00 PM 50.5143 -137.0255 286° West 467 537 38,000  Level FlightAware Transoceanic
Tue 05:49:00 PM 50.5491 -137.2218 285° West 467 537 38,000 500 Level FlightAware Transoceanic
Tue 05:50:00 PM 50.5918 -137.4962 285° West 464 534 39,000 500 Climbing FlightAware Transoceanic
Tue 05:51:00 PM 50.6251 -137.6872 285° West 464 534 39,000  Level FlightAware Transoceanic
Tue 05:52:00 PM 50.6581 -137.8785 285° West 464 534 39,000  Level FlightAware Transoceanic
Tue 05:53:00 PM 50.6907 -138.0701 285° West 464 534 39,000  Level FlightAware Transoceanic
Tue 05:54:00 PM 50.7231 -138.2619 285° West 464 534 39,000  Level FlightAware Transoceanic
Tue 05:55:00 PM 50.7551 -138.4540 285° West 464 534 39,000  Level FlightAware Transoceanic
Tue 05:56:00 PM 50.7868 -138.6463 285° West 464 534 39,000  Level FlightAware Transoceanic
Tue 05:57:00 PM 50.8182 -138.8390 284° West 464 534 39,000  Level FlightAware Transoceanic
Tue 05:57:41 PM 50.8167 -138.8500 285° West 464 534 39,000  Level Oakland Oceanic (ODAPS)
Tue 05:58:00 PM 50.8493 -139.0318 284° West 464 534 39,000  Level FlightAware Transoceanic
Tue 05:59:00 PM 50.8801 -139.2250 284° West 464 534 39,000  Level FlightAware Transoceanic
Tue 06:00:00 PM 50.9106 -139.4183 284° West 464 534 39,000  Level FlightAware Transoceanic
Tue 06:01:00 PM 50.9407 -139.6120 284° West 464 534 39,000  Level FlightAware Transoceanic
Tue 06:02:00 PM 50.9705 -139.8059 284° West 464 534 39,000  Level FlightAware Transoceanic
Tue 06:03:00 PM 51.0000 -140.0000 292° West 464 534 39,000  Level FlightAware Transoceanic
Tue 06:03:39 PM 51.0000 -140.0000 292° West 459 528 39,000  Level Oakland Oceanic (ODAPS)
Tue 06:04:00 PM 51.0481 -140.1909 292° West 464 534 39,000  Level FlightAware Transoceanic
Tue 06:05:00 PM 51.0959 -140.3822 292° West 464 534 39,000  Level FlightAware Transoceanic
Tue 06:06:00 PM 51.1433 -140.5739 291° West 464 534 39,000  Level FlightAware Transoceanic
Tue 06:07:00 PM 51.1904 -140.7659 291° West 464 534 39,000  Level FlightAware Transoceanic
Tue 06:08:00 PM 51.2373 -140.9584 291° West 464 534 39,000  Level FlightAware Transoceanic
Tue 06:09:00 PM 51.2783 -141.1286 291° West 459 528 39,000  Level FlightAware Transoceanic
Tue 06:10:00 PM 51.3237 -141.3180 291° West 459 528 39,000  Level FlightAware Transoceanic
Tue 06:11:00 PM 51.3687 -141.5077 291° West 459 528 39,000  Level FlightAware Transoceanic
Tue 06:11:36 PM 51.3667 -141.5000 291° West 453 521 39,000  Level Oakland Oceanic (ODAPS)
Tue 06:12:00 PM 51.4134 -141.6979 291° West 459 528 39,000  Level FlightAware Transoceanic
Tue 06:13:00 PM 51.4578 -141.8884 290° West 459 528 39,000  Level FlightAware Transoceanic
Tue 06:14:00 PM 51.5019 -142.0793 290° West 459 528 39,000  Level FlightAware Transoceanic
Tue 06:15:00 PM 51.5457 -142.2706 290° West 459 528 39,000  Level FlightAware Transoceanic
Tue 06:16:00 PM 51.5892 -142.4622 290° West 459 528 39,000  Level FlightAware Transoceanic
Tue 06:17:00 PM 51.6323 -142.6542 290° West 459 528 39,000  Level FlightAware Transoceanic
Tue 06:18:00 PM 51.6668 -142.8094 290° West 453 521 39,000  Level FlightAware Transoceanic
Tue 06:19:00 PM 51.7084 -142.9978 290° West 453 521 39,000  Level FlightAware Transoceanic
Tue 06:20:00 PM 51.7498 -143.1866 289° West 453 521 39,000  Level FlightAware Transoceanic
Tue 06:21:00 PM 51.7909 -143.3757 289° West 453 521 39,000  Level FlightAware Transoceanic
Tue 06:22:00 PM 51.8316 -143.5652 289° West 453 521 39,000  Level FlightAware Transoceanic
Tue 06:23:00 PM 51.8721 -143.7551 289° West 453 521 39,000  Level FlightAware Transoceanic
Tue 06:24:00 PM 51.9123 -143.9452 289° West 453 521 39,000  Level FlightAware Transoceanic
Tue 06:25:00 PM 51.9521 -144.1357 289° West 453 521 39,000  Level FlightAware Transoceanic
Tue 06:25:44 PM 51.9500 -144.1500 289° West 453 521 39,000  Level Oakland Oceanic (ODAPS)
Tue 06:26:00 PM 51.9916 -144.3266 289° West 453 521 39,000  Level FlightAware Transoceanic
Tue 06:27:00 PM 52.0309 -144.5177 288° West 453 521 39,000  Level FlightAware Transoceanic
Tue 06:28:00 PM 52.0698 -144.7093 288° West 453 521 39,000  Level FlightAware Transoceanic
Tue 06:29:00 PM 52.1084 -144.9011 288° West 453 521 39,000  Level FlightAware Transoceanic
Tue 06:30:00 PM 52.1467 -145.0933 288° West 453 521 39,000  Level FlightAware Transoceanic
Tue 06:31:00 PM 52.1847 -145.2858 288° West 453 521 39,000  Level FlightAware Transoceanic
Tue 06:32:00 PM 52.2206 -145.4896 288° West 453 521 39,000  Level FlightAware Transoceanic
Tue 06:33:00 PM 52.2580 -145.6823 288° West 453 521 39,000  Level FlightAware Transoceanic
Tue 06:34:00 PM 52.2951 -145.8753 287° West 453 521 39,000  Level FlightAware Transoceanic
Tue 06:35:00 PM 52.3319 -146.0686 287° West 453 521 39,000  Level FlightAware Transoceanic
Tue 06:36:00 PM 52.3684 -146.2623 287° West 453 521 39,000  Level FlightAware Transoceanic
Tue 06:37:00 PM 52.4045 -146.4563 287° West 453 521 39,000  Level FlightAware Transoceanic
Tue 06:38:00 PM 52.4404 -146.6505 287° West 453 521 39,000  Level FlightAware Transoceanic
Tue 06:39:00 PM 52.4759 -146.8452 287° West 453 521 39,000  Level FlightAware Transoceanic
Tue 06:39:20 PM 52.4833 -146.8500 286° West 449 517 39,000  Level Oakland Oceanic (ODAPS)
Tue 06:40:00 PM 52.5111 -147.0401 286° West 453 521 39,000  Level FlightAware Transoceanic
Tue 06:41:00 PM 52.5460 -147.2353 286° West 453 521 39,000  Level FlightAware Transoceanic
Tue 06:42:00 PM 52.5805 -147.4308 286° West 453 521 39,000  Level FlightAware Transoceanic
Tue 06:43:00 PM 52.6147 -147.6267 286° West 453 521 39,000  Level FlightAware Transoceanic
Tue 06:44:00 PM 52.6486 -147.8228 286° West 453 521 39,000  Level FlightAware Transoceanic
Tue 06:45:00 PM 52.6869 -148.0224 285° West 449 517 39,000  Level FlightAware Transoceanic
Tue 06:46:00 PM 52.7196 -148.2189 285° West 449 517 39,000  Level FlightAware Transoceanic
Tue 06:47:00 PM 52.7521 -148.4157 285° West 449 517 39,000  Level FlightAware Transoceanic
Tue 06:48:00 PM 52.7842 -148.6127 285° West 449 517 39,000  Level FlightAware Transoceanic
Tue 06:49:00 PM 52.8161 -148.8100 285° West 449 517 39,000  Level FlightAware Transoceanic
Tue 06:50:00 PM 52.8475 -149.0077 285° West 449 517 39,000  Level FlightAware Transoceanic
Tue 06:51:00 PM 52.8787 -149.2056 285° West 449 517 39,000  Level FlightAware Transoceanic
Tue 06:52:00 PM 52.9095 -149.4038 284° West 449 517 39,000  Level FlightAware Transoceanic
Tue 06:53:00 PM 52.9400 -149.6022 284° West 449 517 39,000  Level FlightAware Transoceanic
Tue 06:53:07 PM 52.9500 -149.6333 283° West 475 547 39,000  Level Oakland Oceanic (ODAPS)
Tue 06:54:00 PM 52.9702 -149.8010 284° West 449 517 39,000  Level FlightAware Transoceanic
Tue 06:54:58 PM 53.0000 -150.0000 293° West 471 542 39,000  Level Oakland Oceanic (ODAPS)
Tue 06:55:00 PM 53.0000 -150.0000 293° West 449 517 39,000  Level FlightAware Transoceanic
Tue 06:56:00 PM 53.0521 -150.2068 293° West 449 517 39,000  Level FlightAware Transoceanic
Tue 06:57:00 PM 53.1038 -150.4141 292° West 449 517 39,000  Level FlightAware Transoceanic
Tue 06:58:00 PM 53.1551 -150.6219 292° West 449 517 39,000  Level FlightAware Transoceanic
Tue 06:59:00 PM 53.2061 -150.8302 292° West 475 547 39,000  Level FlightAware Transoceanic
Tue 07:00:00 PM 53.2567 -151.0389 292° West 475 547 39,000  Level FlightAware Transoceanic
Tue 07:01:00 PM 53.3005 -151.2215 292° West 471 542 39,000  Level FlightAware Transoceanic
Tue 07:02:00 PM 53.3494 -151.4267 292° West 471 542 39,000  Level FlightAware Transoceanic
Tue 07:03:00 PM 53.3979 -151.6324 291° West 471 542 39,000  Level FlightAware Transoceanic
Tue 07:04:00 PM 53.4461 -151.8386 291° West 471 542 39,000  Level FlightAware Transoceanic
Tue 07:05:00 PM 53.4939 -152.0452 291° West 471 542 39,000  Level FlightAware Transoceanic
Tue 07:06:00 PM 53.5414 -152.2523 291° West 471 542 39,000  Level FlightAware Transoceanic
Tue 07:06:59 PM 53.6000 -152.4833 291° West 482 555 39,000  Level Oakland Oceanic (ODAPS)
Tue 07:07:00 PM 53.5884 -152.4599 291° West 471 542 39,000  Level FlightAware Transoceanic
Tue 07:08:00 PM 53.6352 -152.6679 291° West 471 542 39,000  Level FlightAware Transoceanic
Tue 07:09:00 PM 53.6815 -152.8764 290° West 471 542 39,000  Level FlightAware Transoceanic
Tue 07:10:00 PM 53.7276 -153.0853 290° West 471 542 39,000  Level FlightAware Transoceanic
Tue 07:11:00 PM 53.7732 -153.2947 290° West 471 542 39,000  Level FlightAware Transoceanic
Tue 07:12:00 PM 53.8185 -153.5046 290° West 471 542 39,000  Level FlightAware Transoceanic
Tue 07:13:00 PM 53.8806 -153.7718 290° West 482 555 39,000  Level FlightAware Transoceanic
Tue 07:14:00 PM 53.9260 -153.9882 290° West 482 555 39,000  Level FlightAware Transoceanic
Tue 07:15:00 PM 53.9710 -154.2051 289° West 482 555 39,000  Level FlightAware Transoceanic
Tue 07:16:00 PM 54.0156 -154.4224 289° West 482 555 39,000  Level FlightAware Transoceanic
Tue 07:17:00 PM 54.0599 -154.6402 289° West 482 555 39,000  Level FlightAware Transoceanic
Tue 07:18:00 PM 54.1037 -154.8585 289° West 482 555 39,000  Level FlightAware Transoceanic
Tue 07:19:00 PM 54.1472 -155.0772 289° West 482 555 39,000  Level FlightAware Transoceanic
Tue 07:20:00 PM 54.1902 -155.2964 288° West 482 555 39,000  Level FlightAware Transoceanic
Tue 07:21:00 PM 54.2329 -155.5160 288° West 482 555 39,000  Level FlightAware Transoceanic
Tue 07:21:00 PM 54.2167 -155.4333 288° West 482 555 39,000  Level Oakland Oceanic (ODAPS)
Tue 07:22:00 PM 54.2751 -155.7361 288° West 482 555 39,000  Level FlightAware Transoceanic
Tue 07:23:00 PM 54.3170 -155.9567 288° West 482 555 39,000  Level FlightAware Transoceanic
Tue 07:24:00 PM 54.3584 -156.1777 288° West 482 555 39,000  Level FlightAware Transoceanic
Tue 07:25:00 PM 54.3995 -156.3991 288° West 482 555 39,000  Level FlightAware Transoceanic
Tue 07:26:00 PM 54.4401 -156.6210 287° West 482 555 39,000  Level FlightAware Transoceanic
Tue 07:27:00 PM 54.4696 -156.7847 287° West 482 555 39,000  Level FlightAware Transoceanic
Tue 07:28:00 PM 54.5103 -157.0115 287° West 482 555 39,000  Level FlightAware Transoceanic
Tue 07:29:00 PM 54.5506 -157.2388 287° West 482 555 39,000  Level FlightAware Transoceanic
Tue 07:30:00 PM 54.5904 -157.4665 287° West 482 555 39,000  Level FlightAware Transoceanic
Tue 07:31:00 PM 54.6298 -157.6947 287° West 482 555 39,000  Level FlightAware Transoceanic
Tue 07:32:00 PM 54.6688 -157.9233 286° West 482 555 39,000  Level FlightAware Transoceanic
Tue 07:33:00 PM 54.7073 -158.1523 286° West 482 555 39,000  Level FlightAware Transoceanic
Tue 07:34:00 PM 54.7454 -158.3818 286° West 482 555 39,000  Level FlightAware Transoceanic
Tue 07:34:57 PM 54.7833 -158.5833 285° West 480 552 39,000  Level Anchorage Center
Tue 07:35:00 PM 54.7831 -158.6117 286° West 482 555 39,000  Level FlightAware Transoceanic
Tue 07:35:57 PM 54.8167 -158.8000 285° West 480 552 39,000  Level Anchorage Center
Tue 07:36:00 PM 54.8204 -158.8421 286° West 482 555 39,000  Level FlightAware Transoceanic
Tue 07:36:57 PM 54.8667 -159.0167 292° West 470 541 39,000  Level Anchorage Center
Tue 07:37:00 PM 54.8572 -159.0728 285° West 482 555 39,000  Level FlightAware Transoceanic
Tue 07:37:58 PM 54.9000 -159.2500 284° West 480 552 39,000  Level Anchorage Center
Tue 07:38:00 PM 54.8935 -159.3040 285° West 482 555 39,000  Level FlightAware Transoceanic
Tue 07:38:58 PM 54.9333 -159.4667 285° West 470 541 39,000  Level Anchorage Center
Tue 07:39:00 PM 54.9295 -159.5356 285° West 482 555 39,000  Level FlightAware Transoceanic
Tue 07:39:58 PM 54.9667 -159.7000 284° West 470 541 39,000  Level Anchorage Center
Tue 07:40:00 PM 54.9650 -159.7676 285° West 482 555 39,000  Level FlightAware Transoceanic
Tue 07:40:59 PM 55.0000 -159.9167 285° West 480 552 39,000  Level Anchorage Center
Tue 07:41:59 PM 55.0333 -160.1333 285° West 470 541 39,000  Level Anchorage Center
Tue 07:42:59 PM 55.0667 -160.3667 284° West 480 552 39,000  Level Anchorage Center
Tue 07:44:00 PM 55.1000 -160.6000 284° West 480 552 39,000  Level Anchorage Center
Tue 07:45:00 PM 55.1333 -160.8333 284° West 470 541 39,000  Level Anchorage Center
Tue 07:46:00 PM 55.1500 -161.0500 278° West 480 552 39,000  Level Anchorage Center
Tue 07:47:00 PM 55.1833 -161.2833 284° West 480 552 39,000  Level Anchorage Center
Tue 07:48:01 PM 55.2167 -161.5167 284° West 480 552 39,000  Level Anchorage Center
Tue 07:49:01 PM 55.2500 -161.7500 284° West 480 552 39,000  Level Anchorage Center
Tue 07:50:01 PM 55.2833 -161.9833 284° West 490 564 39,000  Level Anchorage Center
Tue 07:51:02 PM 55.3000 -162.2167 277° West 500 575 39,000  Level Anchorage Center
Tue 07:52:02 PM 55.3333 -162.4500 284° West 480 552 39,000  Level Anchorage Center
Tue 07:53:03 PM 55.3667 -162.6667 285° West 470 541 39,000  Level Anchorage Center
Tue 07:54:03 PM 55.3833 -162.9000 277° West 470 541 39,000  Level Anchorage Center
Tue 07:55:03 PM 55.4167 -163.1333 284° West 480 552 39,000  Level Anchorage Center
Tue 07:56:04 PM 55.4500 -163.4000 283° West 470 541 39,000  Level Anchorage Center
Tue 07:58:01 PM 55.5000 -163.8167 282° West 480 552 39,000  Level Anchorage Center
Tue 07:59:01 PM 55.5167 -164.0500 277° West 490 564 39,000  Level Anchorage Center
Tue 08:00:01 PM 55.5500 -164.2833 284° West 480 552 39,000 350 Level Anchorage Center
Tue 08:01:01 PM 55.5667 -164.5167 277° West 480 552 39,700 500 Climbing Anchorage Center
Tue 08:02:01 PM 55.6000 -164.7500 284° West 480 552 40,000 150 Climbing Anchorage Center
Tue 08:03:01 PM 55.6167 -164.9833 277° West 480 552 40,000  Level Anchorage Center
Tue 08:04:01 PM 55.6333 -165.2167 277° West 480 552 40,000  Level Anchorage Center
Tue 08:05:01 PM 55.6667 -165.4500 284° West 480 552 40,000  Level Anchorage Center
Tue 08:06:01 PM 55.6833 -165.7000 277° West 480 552 40,000  Level Anchorage Center
Tue 08:07:01 PM 55.7167 -165.9333 284° West 480 552 40,000  Level Anchorage Center
Tue 08:08:01 PM 55.7333 -166.1667 277° West 480 552 40,000  Level Anchorage Center
Tue 08:09:01 PM 55.7500 -166.4000 277° West 470 541 40,000  Level Anchorage Center
Tue 08:10:02 PM 55.7667 -166.6333 277° West 480 552 40,000  Level Anchorage Center
Tue 08:11:02 PM 55.8000 -166.8833 283° West 460 529 40,000  Level Anchorage Center
Tue 08:12:02 PM 55.8167 -167.1167 277° West 470 541 40,000  Level Anchorage Center
Tue 08:13:02 PM 55.8333 -167.3667 277° West 480 552 40,000  Level Anchorage Center
Tue 08:14:02 PM 55.8500 -167.6000 277° West 470 541 40,000  Level Anchorage Center
Tue 08:15:02 PM 55.8667 -167.8500 277° West 490 564 40,000  Level Anchorage Center
Tue 08:16:02 PM 55.8833 -168.0833 277° West 480 552 40,000  Level Anchorage Center
Tue 08:17:02 PM 55.9000 -168.3167 277° West 480 552 40,000  Level Anchorage Center
Tue 08:18:02 PM 55.9167 -168.5667 277° West 490 564 40,000  Level Anchorage Center
Tue 08:19:02 PM 55.9333 -168.8167 277° West 480 552 40,000  Level Anchorage Center
Tue 08:20:02 PM 55.9500 -169.0500 277° West 490 564 40,000  Level Anchorage Center
Tue 08:21:03 PM 55.9667 -169.3000 277° West 480 552 40,000  Level Anchorage Center
Tue 08:22:03 PM 55.9833 -169.5500 277° West 490 564 40,000  Level Anchorage Center
Tue 08:23:02 PM 56.0000 -169.7833 277° West 480 552 40,000  Level Anchorage Center
Tue 08:24:03 PM 56.0000 -169.9833 270° West 480 552 40,000  Level Anchorage Center
Tue 08:25:03 PM 56.0000 -170.2167 270° West 470 541 40,000  Level Anchorage Center
Tue 08:26:03 PM 55.9833 -170.4500 263° West 470 541 40,000  Level Anchorage Center
Tue 08:27:03 PM 55.9667 -170.7000 263° West 490 564 40,000  Level Anchorage Center
Tue 08:28:03 PM 55.9500 -170.9333 263° West 470 541 40,000  Level Anchorage Center
Tue 08:29:03 PM 55.9333 -171.1667 263° West 480 552 40,000  Level Anchorage Center
Tue 08:30:04 PM 55.9167 -171.4167 263° West 470 541 40,000  Level Anchorage Center
Tue 08:31:03 PM 55.9000 -171.6500 263° West 470 541 40,000  Level Anchorage Center
Tue 08:32:03 PM 55.8833 -171.8833 263° West 470 541 40,000  Level Anchorage Center
Tue 08:33:03 PM 55.8667 -172.1167 263° West 470 541 40,000  Level Anchorage Center
Tue 08:34:04 PM 55.8500 -172.3500 263° West 470 541 40,000  Level Anchorage Center
Tue 08:35:03 PM 55.8333 -172.5833 263° West 470 541 40,000  Level Anchorage Center
Tue 08:36:03 PM 55.8167 -172.8167 263° West 470 541 40,000  Level Anchorage Center
Tue 08:37:04 PM 55.7833 -173.0500 256° West 480 552 40,000  Level Anchorage Center
Tue 08:38:03 PM 55.7667 -173.3000 263° West 480 552 40,000  Level Anchorage Center
Tue 08:39:04 PM 55.7500 -173.5333 263° West 480 552 40,000  Level Anchorage Center
Tue 08:40:04 PM 55.7333 -173.7667 263° West 470 541 40,000  Level Anchorage Center
Tue 08:41:04 PM 55.7000 -174.0000 256° West 470 541 40,000  Level Anchorage Center
Tue 08:42:04 PM 55.6833 -174.2333 263° West 470 541 40,000  Level Anchorage Center
Tue 08:43:04 PM 55.6667 -174.4667 263° West 470 541 40,000  Level Anchorage Center
Tue 08:44:04 PM 55.6500 -174.7000 263° West 470 541 40,000  Level Anchorage Center
Tue 08:45:04 PM 55.6167 -174.9167 255° West 470 541 40,000  Level Anchorage Center
Tue 08:46:04 PM 55.6000 -175.1500 263° West 470 541 40,000  Level Anchorage Center
Tue 08:47:04 PM 55.5833 -175.3833 263° West 470 541 40,000  Level Anchorage Center
Tue 08:48:04 PM 55.5500 -175.6167 256° West 470 541 40,000  Level Anchorage Center
Tue 08:49:04 PM 55.5333 -175.8500 263° West 470 541 40,000  Level Anchorage Center
Tue 08:50:04 PM 55.5000 -176.0667 255° West 480 552 40,000  Level Anchorage Center
Tue 08:51:05 PM 55.4833 -176.3000 263° West 470 541 40,000  Level Anchorage Center
Tue 08:52:04 PM 55.4500 -176.5333 256° West 470 541 40,000  Level Anchorage Center
Tue 08:53:06 PM 55.4167 -176.7667 256° West 470 541 40,000  Level Anchorage Center
Tue 08:54:04 PM 55.4000 -176.9833 262° West 470 541 40,000  Level Anchorage Center
Tue 08:57:00 PM 55.3442 -177.3978 257° West  Level FlightAware Approximate
Tue 08:57:41 PM 55.2833 -177.7833 259° West 479 551 40,000  Level Anchorage Center
Tue 09:01:34 PM 55.2000 -178.5500 262° West 475 547 40,000  Level Anchorage Center
Tue 09:04:00 PM 55.1473 -179.2059 262° West 479 551 40,000  Level FlightAware Transoceanic
Tue 09:05:00 PM 55.1289 -179.4297 262° West 479 551 40,000  Level FlightAware Transoceanic
Tue 09:06:00 PM 55.1101 -179.6533 262° West 479 551 40,000  Level FlightAware Transoceanic
Tue 09:07:00 PM 55.0877 -179.9251 261° West 475 547 40,000  Level FlightAware Transoceanic
Tue 09:07:20 PM 55.0833 -179.9667 261° West 475 547 40,000  Level Anchorage Center
Tue 09:08:00 PM 55.0675 179.8465 261° West 475 547 40,000  Level FlightAware Transoceanic
Tue 09:09:00 PM 55.0469 179.6183 261° West 475 547 40,000  Level FlightAware Transoceanic
Tue 09:10:00 PM 55.0258 179.3904 261° West 475 547 40,000  Level FlightAware Transoceanic
Tue 09:11:00 PM 55.0043 179.1627 261° West 475 547 40,000  Level FlightAware Transoceanic
Tue 09:12:00 PM 54.9824 178.9353 260° West 475 547 40,000  Level FlightAware Transoceanic
Tue 09:13:00 PM 54.9561 178.6743 260° West 475 547 40,000  Level FlightAware Transoceanic
Tue 09:14:00 PM 54.9334 178.4486 260° West 475 547 40,000  Level FlightAware Transoceanic
Tue 09:15:00 PM 54.9103 178.2233 260° West 475 547 40,000  Level FlightAware Transoceanic
Tue 09:16:00 PM 54.8868 177.9981 260° West 475 547 40,000  Level FlightAware Transoceanic
Tue 09:16:06 PM 54.9000 178.0333 259° West 480 552 40,000  Level Anchorage Center
Tue 09:17:00 PM 54.8629 177.7733 259° West 475 547 40,000  Level FlightAware Transoceanic
Tue 09:17:06 PM 54.8833 177.8333 262° West 470 541 40,000  Level Anchorage Center
Tue 09:18:00 PM 54.8386 177.5486 259° West 475 547 40,000  Level FlightAware Transoceanic
Tue 09:18:06 PM 54.8500 177.5833 257° West 470 541 40,000  Level Anchorage Center
Tue 09:19:00 PM 54.8138 177.3243 259° West 475 547 40,000  Level FlightAware Transoceanic
Tue 09:19:06 PM 54.8167 177.3500 256° West 470 541 40,000  Level Anchorage Center
Tue 09:20:00 PM 54.7886 177.1003 259° West 475 547 40,000  Level FlightAware Transoceanic
Tue 09:20:06 PM 54.8000 177.1500 262° West 470 541 40,000  Level Anchorage Center
Tue 09:21:00 PM 54.7631 176.8765 259° West 475 547 40,000  Level FlightAware Transoceanic
Tue 09:21:06 PM 54.7667 176.9000 257° West 470 541 40,000  Level Anchorage Center
Tue 09:22:07 PM 54.7500 176.7167 261° West 470 541 40,000  Level Anchorage Center
Tue 09:23:06 PM 54.7167 176.4667 257° West 470 541 40,000  Level Anchorage Center
Tue 09:24:07 PM 54.7000 176.2667 262° West 480 552 40,000  Level Anchorage Center
Tue 09:25:07 PM 54.6667 176.0333 256° West 470 541 40,000  Level Anchorage Center
Tue 09:26:07 PM 54.6333 175.7833 257° West 470 541 40,000  Level Anchorage Center
Tue 09:27:07 PM 54.6167 175.6000 261° West 470 541 40,000  Level Anchorage Center
Tue 09:28:07 PM 54.5833 175.3500 257° West 470 541 40,000  Level Anchorage Center
Tue 09:29:07 PM 54.5667 175.1667 261° West 470 541 40,000  Level Anchorage Center
Tue 09:30:07 PM 54.5333 174.9167 257° West 470 541 40,000  Level Anchorage Center
Tue 09:31:07 PM 54.5000 174.7333 253° West 470 541 40,000  Level Anchorage Center
Tue 09:32:07 PM 54.4667 174.5000 256° West 470 541 40,000  Level Anchorage Center
Tue 09:33:07 PM 54.4500 174.3000 262° West 470 541 40,000  Level Anchorage Center
Tue 09:34:08 PM 54.4167 174.0667 256° West 470 541 40,000  Level Anchorage Center
Tue 09:35:07 PM 54.3833 173.8167 257° West 470 541 40,000 353 Level Anchorage Center
Tue 09:36:07 PM 54.3500 173.6333 253° West 480 552 40,700 496 Climbing Anchorage Center
Tue 09:37:08 PM 54.3167 173.3833 257° West 480 552 41,000 149 Climbing Anchorage Center
Tue 09:38:08 PM 54.3000 173.2000 261° West 470 541 41,000  Level Anchorage Center
Tue 09:39:08 PM 54.2500 172.9667 250° West 470 541 41,000  Level Anchorage Center
Tue 09:40:08 PM 54.2333 172.7833 261° West 470 541 41,000  Level Anchorage Center
Tue 09:41:07 PM 54.1833 172.5667 249° West 440 506 41,000  Level Anchorage Center
Tue 09:42:08 PM 54.1000 172.3833 232° Southwest 470 541 41,000  Level Anchorage Center
Tue 09:43:08 PM 54.0333 172.2167 236° Southwest 470 541 41,000  Level Anchorage Center
Tue 09:44:08 PM 53.9500 172.0167 235° Southwest 480 552 41,000  Level Anchorage Center
Tue 09:45:08 PM 53.8833 171.8667 233° Southwest 470 541 41,000  Level Anchorage Center
Tue 09:46:08 PM 53.8000 171.6667 235° Southwest 470 541 41,000  Level Anchorage Center
Tue 09:47:08 PM 53.7333 171.5000 236° Southwest 470 541 41,000  Level Anchorage Center
Tue 09:48:08 PM 53.6500 171.3000 235° Southwest 480 552 41,000  Level Anchorage Center
Tue 09:49:08 PM 53.5667 171.1167 233° Southwest 470 541 41,000  Level Anchorage Center
Tue 09:50:08 PM 53.5000 170.9667 233° Southwest 460 529 41,000  Level Anchorage Center
Tue 09:51:08 PM 53.4167 170.7667 235° Southwest 470 541 41,000  Level Anchorage Center
Tue 09:52:08 PM 53.3500 170.6167 233° Southwest 480 552 41,000  Level Anchorage Center
Tue 09:53:08 PM 53.2667 170.4333 233° Southwest 470 541 41,000  Level Anchorage Center
Tue 09:54:09 PM 53.1833 170.2667 230° Southwest 470 541 41,000  Level Anchorage Center
Tue 09:55:08 PM 53.1000 170.0833 233° Southwest 480 552 41,000  Level Anchorage Center
Tue 09:56:08 PM 53.0167 169.9000 233° Southwest 470 541 41,000  Level Anchorage Center
Tue 09:57:08 PM 52.9500 169.7333 236° Southwest 480 552 41,000  Level Anchorage Center
Tue 09:58:08 PM 52.8833 169.5333 241° Southwest 470 541 41,000  Level Anchorage Center
Tue 09:59:09 PM 52.8333 169.3667 244° Southwest 460 529 41,000  Level Anchorage Center
Tue 10:00:09 PM 52.7667 169.1667 241° Southwest 470 541 41,000  Level Anchorage Center
Tue 10:01:09 PM 52.7167 169.0000 244° Southwest 450 518 41,000  Level Anchorage Center
Tue 10:02:09 PM 52.6333 168.8000 236° Southwest 460 529 41,000  Level Anchorage Center
Tue 10:03:09 PM 52.5833 168.6500 241° Southwest 450 518 41,000  Level Anchorage Center
Tue 10:04:09 PM 52.5167 168.4500 241° Southwest 470 541 41,000  Level Anchorage Center
Tue 10:05:10 PM 52.4500 168.2500 241° Southwest 450 518 41,000  Level Anchorage Center
Tue 10:06:09 PM 52.4000 168.1000 241° Southwest 470 541 41,000  Level Anchorage Center
Tue 10:07:09 PM 52.3167 167.9000 236° Southwest 460 529 41,000  Level Anchorage Center
Tue 10:09:10 PM 52.2000 167.5500 242° Southwest 470 541 41,000  Level Anchorage Center
Tue 10:10:09 PM 52.1333 167.4000 234° Southwest 460 529 41,000  Level Anchorage Center
Tue 10:12:00 PM 52.0125 167.0786 239° Southwest  Level FlightAware Approximate
Tue 10:14:36 PM 51.8500 166.6333 239° Southwest 457 526 41,000  Level Anchorage Center
Tue 10:19:00 PM 51.5476 165.8783 238° Southwest  Level FlightAware Approximate
Tue 10:20:00 PM 51.4570 165.6147 238° Southwest 457 526 41,000  Level FlightAware Transoceanic
Tue 10:20:47 PM 51.4333 165.5500 238° Southwest 456 525 41,000  Level Anchorage Center
Tue 10:21:00 PM 51.3906 165.4467 238° Southwest 457 526 41,000  Level FlightAware Transoceanic
Tue 10:22:00 PM 51.3240 165.2791 237° Southwest 457 526 41,000  Level FlightAware Transoceanic
Tue 10:23:00 PM 51.2572 165.1120 237° Southwest 457 526 41,000  Level FlightAware Transoceanic
Tue 10:24:00 PM 51.1901 164.9454 237° Southwest 457 526 41,000  Level FlightAware Transoceanic
Tue 10:24:08 PM 51.2000 164.9833 237° Southwest 453 521 41,000  Level Anchorage Center
Tue 10:25:00 PM 51.1228 164.7793 237° Southwest 457 526 41,000  Level FlightAware Transoceanic
Tue 10:26:00 PM 51.0923 164.7005 237° Southwest 456 525 41,000  Level FlightAware Transoceanic
Tue 10:27:00 PM 51.0234 164.5321 237° Southwest 456 525 41,000  Level FlightAware Transoceanic
Tue 10:27:46 PM 50.9500 164.3833 237° Southwest 452 520 41,000  Level Anchorage Center
Tue 10:28:00 PM 50.9542 164.3642 237° Southwest 456 525 41,000  Level FlightAware Transoceanic
Tue 10:29:00 PM 50.8848 164.1969 237° Southwest 456 525 41,000  Level FlightAware Transoceanic
Tue 10:30:00 PM 50.7910 163.9862 237° Southwest 453 521 41,000  Level FlightAware Transoceanic
Tue 10:31:00 PM 50.7220 163.8217 236° Southwest 453 521 41,000  Level FlightAware Transoceanic
Tue 10:32:00 PM 50.6528 163.6577 236° Southwest 453 521 41,000  Level FlightAware Transoceanic
Tue 10:33:00 PM 50.5834 163.4941 236° Southwest 453 521 41,000  Level FlightAware Transoceanic
Tue 10:33:52 PM 50.5500 163.4000 236° Southwest 452 520 41,000  Level Anchorage Center
Tue 10:34:00 PM 50.4781 163.2583 236° Southwest 452 520 41,000  Level FlightAware Transoceanic
Tue 10:35:00 PM 50.4098 163.0994 236° Southwest 452 520 41,000  Level FlightAware Transoceanic
Tue 10:36:00 PM 50.3412 162.9410 236° Southwest 452 520 41,000  Level FlightAware Transoceanic
Tue 10:37:00 PM 50.2725 162.7830 236° Southwest 452 520 41,000  Level FlightAware Transoceanic
Tue 10:38:00 PM 50.2036 162.6255 236° Southwest 452 520 41,000  Level FlightAware Transoceanic
Tue 10:39:00 PM 50.1344 162.4685 235° Southwest 452 520 41,000  Level FlightAware Transoceanic
Tue 10:40:00 PM 50.0676 162.2999 235° Southwest 452 520 41,000  Level FlightAware Transoceanic
Tue 10:41:00 PM 49.9978 162.1446 235° Southwest 452 520 41,000  Level FlightAware Transoceanic
Tue 10:42:00 PM 49.9279 161.9897 235° Southwest 452 520 41,000  Level FlightAware Transoceanic
Tue 10:43:00 PM 49.8577 161.8353 235° Southwest 452 520 41,000  Level FlightAware Transoceanic
Tue 10:43:22 PM 49.8667 161.8500 235° Southwest 451 519 41,000  Level Anchorage Center
Tue 10:44:00 PM 49.7873 161.6813 235° Southwest 452 520 41,000  Level FlightAware Transoceanic
Tue 10:45:00 PM 49.7167 161.5277 235° Southwest 452 520 41,000  Level FlightAware Transoceanic
Tue 10:46:00 PM 49.6460 161.3746 234° Southwest 452 520 41,000  Level FlightAware Transoceanic
Tue 10:47:00 PM 49.5750 161.2220 234° Southwest 452 520 41,000  Level FlightAware Transoceanic
Tue 10:48:00 PM 49.5038 161.0698 234° Southwest 452 520 41,000  Level FlightAware Transoceanic
Tue 10:48:29 PM 49.4833 161.0333 234° Southwest 452 520 41,000  Level Anchorage Center
Tue 10:49:00 PM 49.4370 160.9252 234° Southwest 451 519 41,000  Level FlightAware Transoceanic
Tue 10:50:00 PM 49.3646 160.7727 234° Southwest 451 519 41,000  Level FlightAware Transoceanic
Tue 10:51:00 PM 49.2921 160.6206 234° Southwest 451 519 41,000  Level FlightAware Transoceanic
Tue 10:52:00 PM 49.2194 160.4689 234° Southwest 451 519 41,000  Level FlightAware Transoceanic
Tue 10:53:00 PM 49.1464 160.3177 234° Southwest 451 519 41,000  Level FlightAware Transoceanic
Tue 10:54:00 PM 49.0696 160.1607 234° Southwest 452 520 41,000  Level FlightAware Transoceanic
Tue 10:55:00 PM 49.0000 160.0167 233° Southwest 452 520 41,000  Level FlightAware Transoceanic
Tue 10:56:00 PM 48.9269 159.8675 233° Southwest 452 520 41,000  Level FlightAware Transoceanic
Tue 10:57:00 PM 48.8535 159.7187 233° Southwest 452 520 41,000  Level FlightAware Transoceanic
Tue 10:58:00 PM 48.7800 159.5704 233° Southwest 452 520 41,000  Level FlightAware Transoceanic
Tue 10:59:00 PM 48.7063 159.4225 233° Southwest 452 520 41,000  Level FlightAware Transoceanic
Tue 11:00:00 PM 48.6324 159.2751 233° Southwest 452 520 41,000  Level FlightAware Transoceanic
Tue 11:01:00 PM 48.5583 159.1280 233° Southwest 452 520 41,000  Level FlightAware Transoceanic
Tue 11:02:00 PM 48.4841 158.9815 233° Southwest 452 520 41,000  Level FlightAware Transoceanic
Tue 11:03:00 PM 48.4096 158.8353 232° Southwest 452 520 41,000  Level FlightAware Transoceanic
Tue 11:04:00 PM 48.3350 158.6896 232° Southwest 452 520 41,000  Level FlightAware Transoceanic
Tue 11:05:00 PM 48.2602 158.5443 232° Southwest 452 520 41,000  Level FlightAware Transoceanic
Tue 11:06:00 PM 48.1852 158.3994 232° Southwest 452 520 41,000  Level FlightAware Transoceanic
Tue 11:07:00 PM 48.1100 158.2549 232° Southwest 452 520 41,000  Level FlightAware Transoceanic
Tue 11:08:00 PM 48.0346 158.1109 232° Southwest 452 520 41,000  Level FlightAware Transoceanic
Tue 11:09:00 PM 47.9590 157.9673 232° Southwest 452 520 41,000  Level FlightAware Transoceanic
Tue 11:10:00 PM 47.8833 157.8241 232° Southwest 452 520 41,000  Level FlightAware Transoceanic
Tue 11:11:00 PM 47.8074 157.6813 232° Southwest 452 520 41,000  Level FlightAware Transoceanic
Tue 11:12:00 PM 47.7313 157.5390 231° Southwest 452 520 41,000  Level FlightAware Transoceanic
Tue 11:13:00 PM 47.6551 157.3970 231° Southwest 452 520 41,000  Level FlightAware Transoceanic
Tue 11:14:00 PM 47.5787 157.2555 231° Southwest 452 520 41,000  Level FlightAware Transoceanic
Tue 11:15:00 PM 47.5021 157.1144 231° Southwest 452 520 41,000  Level FlightAware Transoceanic
Tue 11:16:00 PM 47.4253 156.9737 231° Southwest 452 520 41,000  Level FlightAware Transoceanic
Tue 11:17:00 PM 47.3483 156.8334 231° Southwest 452 520 41,000  Level FlightAware Transoceanic
Tue 11:18:00 PM 47.2712 156.6935 231° Southwest 452 520 41,000  Level FlightAware Transoceanic
Tue 11:19:00 PM 47.1939 156.5540 231° Southwest 452 520 41,000  Level FlightAware Transoceanic
Tue 11:20:00 PM 47.1165 156.4149 231° Southwest 452 520 41,000  Level FlightAware Transoceanic
Tue 11:21:00 PM 47.0388 156.2763 231° Southwest 452 520 41,000  Level FlightAware Transoceanic
Tue 11:22:00 PM 46.9611 156.1380 230° Southwest 452 520 41,000  Level FlightAware Transoceanic
Tue 11:23:00 PM 46.8831 156.0002 230° Southwest 452 520 41,000  Level FlightAware Transoceanic
Tue 11:24:00 PM 46.8050 155.8627 230° Southwest 452 520 41,000  Level FlightAware Transoceanic
Tue 11:25:00 PM 46.7267 155.7256 230° Southwest 452 520 41,000  Level FlightAware Transoceanic
Tue 11:26:00 PM 46.6483 155.5890 230° Southwest 452 520 41,000  Level FlightAware Transoceanic
Tue 11:27:00 PM 46.5696 155.4527 230° Southwest 452 520 41,000  Level FlightAware Transoceanic
Tue 11:28:00 PM 46.4909 155.3168 230° Southwest 452 520 41,000  Level FlightAware Transoceanic
Tue 11:29:00 PM 46.4119 155.1814 230° Southwest 452 520 41,000  Level FlightAware Transoceanic
Tue 11:30:00 PM 46.3328 155.0463 230° Southwest 452 520 41,000  Level FlightAware Transoceanic
Tue 11:31:00 PM 46.2536 154.9116 230° Southwest 452 520 41,000  Level FlightAware Transoceanic
Tue 11:32:00 PM 46.1742 154.7773 229° Southwest 452 520 41,000  Level FlightAware Transoceanic
Tue 11:33:00 PM 46.0946 154.6434 229° Southwest 452 520 41,000  Level FlightAware Transoceanic
Tue 11:34:00 PM 46.0149 154.5098 229° Southwest 452 520 41,000  Level FlightAware Transoceanic
Tue 11:35:00 PM 45.9350 154.3767 229° Southwest 452 520 41,000  Level FlightAware Transoceanic
Tue 11:36:00 PM 45.8550 154.2439 229° Southwest 452 520 41,000  Level FlightAware Transoceanic
Tue 11:37:00 PM 45.7748 154.1115 229° Southwest 452 520 41,000  Level FlightAware Transoceanic
Tue 11:38:00 PM 45.6945 153.9795 229° Southwest 452 520 41,000  Level FlightAware Transoceanic
Tue 11:39:00 PM 45.6140 153.8479 229° Southwest 452 520 41,000  Level FlightAware Transoceanic
Tue 11:40:00 PM 45.5223 153.7242 223° Southwest  Level FlightAware Approximate
Tue 11:41:00 PM 45.4305 153.6010 223° Southwest  Level FlightAware Approximate
Tue 11:42:00 PM 45.4351 153.5859 228° Southwest  Level FlightAware Approximate
Tue 11:43:00 PM 45.3511 153.4519 228° Southwest  Level FlightAware Approximate
Tue 11:44:00 PM 45.2670 153.3184 228° Southwest  Level FlightAware Approximate
Tue 11:45:00 PM 45.1827 153.1852 228° Southwest  Level FlightAware Approximate
Tue 11:46:00 PM 45.0983 153.0525 228° Southwest  Level FlightAware Approximate
Tue 11:47:00 PM 45.0137 152.9201 228° Southwest  Level FlightAware Approximate
Tue 11:48:00 PM 44.9290 152.7882 228° Southwest  Level FlightAware Approximate
Tue 11:49:00 PM 44.8441 152.6566 228° Southwest  Level FlightAware Approximate
Tue 11:50:00 PM 44.7590 152.5254 228° Southwest  Level FlightAware Approximate
Tue 11:51:00 PM 44.6739 152.3946 228° Southwest  Level FlightAware Approximate
Tue 11:52:00 PM 44.5885 152.2641 227° Southwest  Level FlightAware Approximate
Tue 11:53:00 PM 44.5030 152.1341 227° Southwest  Level FlightAware Approximate
Tue 11:54:00 PM 44.4174 152.0045 227° Southwest  Level FlightAware Approximate
Tue 11:55:00 PM 44.3316 151.8752 227° Southwest  Level FlightAware Approximate
Tue 11:56:00 PM 44.2457 151.7463 227° Southwest  Level FlightAware Approximate
Tue 11:57:00 PM 44.1596 151.6177 227° Southwest  Level FlightAware Approximate
Tue 11:58:00 PM 44.0734 151.4896 227° Southwest  Level FlightAware Approximate
Tue 11:59:00 PM 43.9871 151.3618 227° Southwest  Level FlightAware Approximate
Wed 12:00:00 AM 43.9006 151.2344 227° Southwest  Level FlightAware Approximate
Wed 12:01:00 AM 43.8139 151.1074 227° Southwest  Level FlightAware Approximate
Wed 12:02:00 AM 43.7272 150.9807 227° Southwest  Level FlightAware Approximate
Wed 12:03:00 AM 43.6414 150.8560 226° Southwest  Level FlightAware Approximate
Wed 12:04:00 AM 43.5555 150.7318 226° Southwest  Level FlightAware Approximate
Wed 12:05:00 AM 43.4694 150.6078 226° Southwest  Level FlightAware Approximate
Wed 12:06:00 AM 43.3833 150.4842 226° Southwest  Level FlightAware Approximate
Wed 12:07:00 AM 43.2970 150.3610 226° Southwest  Level FlightAware Approximate
Wed 12:08:00 AM 43.2105 150.2381 226° Southwest  Level FlightAware Approximate
Wed 12:09:00 AM 43.1239 150.1156 226° Southwest  Level FlightAware Approximate
Wed 12:10:00 AM 43.0372 149.9934 226° Southwest  Level FlightAware Approximate
Wed 12:11:00 AM 42.9504 149.8715 226° Southwest  Level FlightAware Approximate
Wed 12:12:00 AM 42.8634 149.7500 226° Southwest  Level FlightAware Approximate
Wed 12:13:00 AM 42.7764 149.6289 226° Southwest  Level FlightAware Approximate
Wed 12:13:00 AM 42.8990 149.7570 226° Southwest 396 456 41,000  Level FlightAware ADS-B
Wed 12:13:50 AM 42.8310 149.6620 226° Southwest 398 458 41,000  Level FlightAware ADS-B
Wed 12:14:00 AM 42.6891 149.5081 226° Southwest  Level FlightAware Approximate
Wed 12:14:40 AM 42.7670 149.5730 226° Southwest 392 451 41,000  Level FlightAware ADS-B
Wed 12:15:44 AM 42.6860 149.4620 225° Southwest 396 456 41,000  Level FlightAware ADS-B
Wed 12:16:41 AM 42.6180 149.3670 226° Southwest 394 453 41,000  Level FlightAware ADS-B
Wed 12:17:07 AM 42.5890 149.3290 224° Southwest 394 453 41,000  Level FlightAware ADS-B
Wed 12:17:43 AM 42.5500 149.2750 226° Southwest 394 453 41,000  Level FlightAware ADS-B
Wed 12:18:20 AM 42.4900 149.1930 225° Southwest 394 453 41,000  Level FlightAware ADS-B
Wed 12:19:19 AM 42.4120 149.0870 225° Southwest 378 435 41,000  Level FlightAware ADS-B
Wed 12:19:44 AM 42.3850 149.0490 226° Southwest 378 435 41,000  Level FlightAware ADS-B
Wed 12:20:24 AM 42.3320 148.9780 225° Southwest 385 443 41,000  Level FlightAware ADS-B
Wed 12:21:39 AM 42.2370 148.8500 225° Southwest 384 442 41,000  Level FlightAware ADS-B
Wed 12:22:33 AM 42.1670 148.7550 225° Southwest 385 443 41,000  Level FlightAware ADS-B
Wed 12:23:28 AM 42.1000 148.6640 225° Southwest 386 444 41,000  Level FlightAware ADS-B
Wed 12:24:03 AM 42.0530 148.6020 224° Southwest 385 443 41,000  Level FlightAware ADS-B
Wed 12:24:53 AM 41.9930 148.5220 225° Southwest 384 442 41,000  Level FlightAware ADS-B
Wed 12:26:13 AM 41.8900 148.3850 225° Southwest 382 440 41,000  Level FlightAware ADS-B
Wed 12:27:08 AM 41.8220 148.2950 225° Southwest 374 430 41,000  Level FlightAware ADS-B
Wed 12:27:43 AM 41.7790 148.2380 225° Southwest 374 430 41,000  Level FlightAware ADS-B
Wed 12:28:08 AM 41.7460 148.1940 225° Southwest 374 430 41,000  Level FlightAware ADS-B
Wed 12:28:48 AM 41.6950 148.1280 224° Southwest 380 437 41,000  Level FlightAware ADS-B
Wed 12:29:48 AM 41.6190 148.0320 223° Southwest 381 438 41,000  Level FlightAware ADS-B
Wed 12:30:23 AM 41.5760 147.9770 224° Southwest 381 438 41,000  Level FlightAware ADS-B
Wed 12:30:58 AM 41.5310 147.9190 224° Southwest 382 440 41,000  Level FlightAware ADS-B
Wed 12:31:43 AM 41.4720 147.8440 224° Southwest 381 438 41,000  Level FlightAware ADS-B
Wed 12:32:28 AM 41.4150 147.7720 223° Southwest 379 436 41,000  Level FlightAware ADS-B
Wed 12:33:18 AM 41.3520 147.6920 224° Southwest 378 435 41,000  Level FlightAware ADS-B
Wed 12:33:49 AM 41.3130 147.6430 223° Southwest 379 436 41,000  Level FlightAware ADS-B
Wed 12:34:48 AM 41.2390 147.5490 224° Southwest 383 441 41,000  Level FlightAware ADS-B
Wed 12:35:33 AM 41.1790 147.4740 223° Southwest 379 436 41,000  Level FlightAware ADS-B
Wed 12:36:08 AM 41.1350 147.4190 223° Southwest 381 438 41,000  Level FlightAware ADS-B
Wed 12:36:38 AM 41.0960 147.3700 223° Southwest 381 438 41,000  Level FlightAware ADS-B
Wed 12:37:18 AM 41.0430 147.3040 223° Southwest 383 441 41,000  Level FlightAware ADS-B
Wed 12:37:53 AM 40.9990 147.2490 223° Southwest 386 444 41,000  Level FlightAware ADS-B
Wed 12:38:28 AM 40.9500 147.1880 223° Southwest 386 444 41,000  Level FlightAware ADS-B
Wed 12:39:13 AM 40.8900 147.1140 223° Southwest 394 453 41,000  Level FlightAware ADS-B
Wed 12:40:03 AM 40.8270 147.0360 223° Southwest 394 453 41,000  Level FlightAware ADS-B
Wed 12:40:38 AM 40.7770 146.9750 223° Southwest 393 452 41,000  Level FlightAware ADS-B
Wed 12:41:13 AM 40.7310 146.9170 224° Southwest 393 452 41,000  Level FlightAware ADS-B
Wed 12:42:03 AM 40.6640 146.8360 223° Southwest 395 455 41,000  Level FlightAware ADS-B
Wed 12:42:58 AM 40.5930 146.7480 223° Southwest 396 456 41,000  Level FlightAware ADS-B
Wed 12:43:48 AM 40.5270 146.6670 223° Southwest 395 455 41,000  Level FlightAware ADS-B
Wed 12:44:43 AM 40.4510 146.5750 223° Southwest 397 457 41,000  Level FlightAware ADS-B
Wed 12:45:24 AM 40.3960 146.5080 223° Southwest 397 457 41,000  Level FlightAware ADS-B
Wed 12:46:23 AM 40.3150 146.4110 222° Southwest 394 453 41,000  Level FlightAware ADS-B
Wed 12:47:18 AM 40.2440 146.3240 223° Southwest 393 452 41,000  Level FlightAware ADS-B
Wed 12:47:48 AM 40.2020 146.2740 222° Southwest 392 451 41,000  Level FlightAware ADS-B
Wed 12:48:18 AM 40.1610 146.2250 222° Southwest 392 451 41,000  Level FlightAware ADS-B
Wed 12:48:48 AM 40.1220 146.1780 223° Southwest 393 452 41,000  Level FlightAware ADS-B
Wed 12:49:48 AM 40.0410 146.0810 223° Southwest 392 451 41,000  Level FlightAware ADS-B
Wed 12:50:18 AM 40.0030 146.0360 222° Southwest 392 451 41,000  Level FlightAware ADS-B
Wed 12:50:59 AM 39.9480 145.9700 223° Southwest 391 450 41,000  Level FlightAware ADS-B
Wed 12:51:23 AM 39.9140 145.9300 222° Southwest 390 449 41,000  Level FlightAware ADS-B
Wed 12:52:13 AM 39.8510 145.8550 222° Southwest 388 447 41,000  Level FlightAware ADS-B
Wed 12:52:33 AM 39.8250 145.8240 222° Southwest 382 440 41,000  Level FlightAware ADS-B
Wed 12:53:22 AM 39.7710 145.7590 223° Southwest 382 440 41,000  Level FlightAware ADS-B
Wed 12:54:10 AM 39.7180 145.6950 223° Southwest 382 440 41,000  Level FlightAware ADS-B
Wed 12:54:46 AM 39.6790 145.6470 223° Southwest 382 440 41,000  Level FlightAware ADS-B
Wed 12:55:22 AM 39.6390 145.5990 223° Southwest 382 440 41,000  Level FlightAware ADS-B
Wed 12:56:35 AM 39.5590 145.5020 223° Southwest 382 440 41,000  Level FlightAware ADS-B
Wed 12:57:23 AM 39.5060 145.4380 223° Southwest 382 440 41,000  Level FlightAware ADS-B
Wed 12:57:59 AM 39.4670 145.3910 223° Southwest 382 440 41,000  Level FlightAware ADS-B
Wed 12:58:59 AM 39.4010 145.3110 223° Southwest 382 440 41,000  Level FlightAware ADS-B
Wed 12:59:59 AM 39.3350 145.2320 223° Southwest 382 440 41,000  Level FlightAware ADS-B
Wed 01:00:47 AM 39.2820 145.1680 223° Southwest 382 440 41,000  Level FlightAware ADS-B
Wed 01:01:35 AM 39.2290 145.1040 223° Southwest 382 440 41,000  Level FlightAware ADS-B
Wed 01:02:11 AM 39.1900 145.0570 223° Southwest 382 440 41,000  Level FlightAware ADS-B
Wed 01:05:00 AM 38.9187 144.7733 219° Southwest  Level FlightAware Approximate
Wed 01:06:00 AM 38.8230 144.6738 219° Southwest  Level FlightAware Approximate
Wed 01:07:00 AM 38.7294 144.5698 222° Southwest  Level FlightAware Approximate
Wed 01:08:00 AM 38.6371 144.4652 222° Southwest  Level FlightAware Approximate
Wed 01:09:00 AM 38.5448 144.3609 221° Southwest  Level FlightAware Approximate
Wed 01:10:00 AM 38.4524 144.2569 221° Southwest  Level FlightAware Approximate
Wed 01:11:00 AM 38.3598 144.1532 221° Southwest  Level FlightAware Approximate
Wed 01:12:00 AM 38.2672 144.0497 221° Southwest  Level FlightAware Approximate
Wed 01:13:00 AM 38.1745 143.9465 221° Southwest  Level FlightAware Approximate
Wed 01:14:00 AM 38.0817 143.8436 221° Southwest  Level FlightAware Approximate
Wed 01:15:00 AM 37.9888 143.7409 221° Southwest  Level FlightAware Approximate
Wed 01:16:00 AM 37.8958 143.6385 221° Southwest  Level FlightAware Approximate
Wed 01:17:00 AM 37.8027 143.5363 221° Southwest  Level FlightAware Approximate
Wed 01:18:00 AM 37.6985 143.4534 212° Southwest  Level FlightAware Approximate
Wed 01:19:00 AM 37.5939 143.3712 212° Southwest  Level FlightAware Approximate
Wed 01:20:00 AM 37.4892 143.2893 212° Southwest  Level FlightAware Approximate
Wed 01:21:00 AM 37.3845 143.2077 212° Southwest  Level FlightAware Approximate
Wed 01:22:00 AM 37.2797 143.1262 212° Southwest  Level FlightAware Approximate
Wed 01:22:39 AM 37.1810 143.2720 212° Southwest 411 473 41,000  Level FlightAware ADS-B
Wed 01:23:03 AM 37.1490 143.2440 215° Southwest 411 473 41,000  Level FlightAware ADS-B
Wed 01:23:39 AM 37.1020 143.2020 215° Southwest 411 473 41,000  Level FlightAware ADS-B
Wed 01:24:15 AM 37.0540 143.1610 214° Southwest 411 473 41,000  Level FlightAware ADS-B
Wed 01:25:03 AM 36.9900 143.1050 215° Southwest 411 473 41,000  Level FlightAware ADS-B
Wed 01:26:03 AM 36.9110 143.0350 215° Southwest 411 473 41,000  Level FlightAware ADS-B
Wed 01:26:32 AM 36.8310 142.9410 223° Southwest 560 644 41,000 -204 Level FlightAware ADS-B
Wed 01:29:00 AM 36.6944 142.6022 212° Southwest  Level Estimated
Wed 01:30:00 AM 36.5795 142.5469 201° Southwest  Level FlightAware Approximate
Wed 01:30:28 AM 36.4780 142.6060 201° Southwest 404 465 40,100  Level FlightAware ADS-B
Wed 01:31:26 AM 36.3900 142.5230 217° Southwest 405 466 37,900 -2,389 Descending FlightAware ADS-B
Wed 01:32:16 AM 36.3140 142.4510 217° Southwest 411 473 35,800 -2,824 Descending FlightAware ADS-B
Wed 01:33:08 AM 36.2350 142.3780 217° Southwest 422 486 33,100 -2,967 Descending FlightAware ADS-B
Wed 01:33:47 AM 36.1790 142.3250 217° Southwest 439 505 31,300 -2,757 Descending FlightAware ADS-B
Wed 01:34:22 AM 36.1170 142.2670 217° Southwest 441 507 29,700 -2,538 Descending FlightAware ADS-B
Wed 01:34:39 AM 36.0920 142.2440 217° Southwest 439 505 29,100 -1,761 Descending FlightAware ADS-B
Wed 01:35:54 AM 35.9740 142.1340 217° Southwest 430 495 27,000 -2,529 Descending FlightAware ADS-B
Wed 01:36:40 AM 35.8990 142.0640 217° Southwest 420 483 24,000 -3,091 Descending FlightAware ADS-B
Wed 01:37:33 AM 35.8200 141.9910 217° Southwest 404 465 21,900 -2,357 Descending FlightAware ADS-B
Wed 01:38:04 AM 35.7720 141.9480 216° Southwest 406 467 20,700 -2,419 Descending FlightAware ADS-B
Wed 01:38:35 AM 35.7250 141.9040 217° Southwest 398 458 19,400 -2,278 Descending FlightAware ADS-B
Wed 01:39:23 AM 35.6570 141.8410 217° Southwest 386 444 17,700 -2,027 Descending FlightAware ADS-B
Wed 01:39:49 AM 35.6290 141.7990 231° Southwest 386 444 16,900 -1,364 Descending FlightAware ADS-B
Wed 01:40:51 AM 35.6380 141.6700 275° West 376 433 15,700 -1,118 Descending FlightAware ADS-B
Wed 01:41:31 AM 35.6620 141.5800 288° West 375 432 15,000 -963 Descending FlightAware ADS-B
Wed 01:42:12 AM 35.6820 141.5060 288° West 372 428 14,400 -896 Descending FlightAware ADS-B
Wed 01:42:38 AM 35.6970 141.4470 287° West 371 427 14,000 -909 Descending FlightAware ADS-B
Wed 01:43:18 AM 35.7180 141.3660 288° West 368 423 13,400 -1,200 Descending FlightAware ADS-B
Wed 01:43:43 AM 35.7270 141.3160 283° West 363 418 12,700 -1,857 Descending FlightAware ADS-B
Wed 01:44:42 AM 35.7000 141.2070 253° West 356 410 10,800 -1,846 Descending FlightAware ADS-B
Wed 01:45:14 AM 35.6800 141.1470 248° West 346 398 9,900 -844 Descending FlightAware ADS-B
Wed 01:45:46 AM 35.6620 141.0930 248° West 309 356 9,900 -329 Level FlightAware ADS-B
Wed 01:46:27 AM 35.6400 141.0290 247° West 272 313 9,500 -868 Descending FlightAware ADS-B
Wed 01:47:02 AM 35.6240 140.9800 248° West 264 304 8,800 -1,477 Descending FlightAware ADS-B
Wed 01:47:32 AM 35.6100 140.9360 249° West 262 302 7,900 -1,600 Descending FlightAware ADS-B
Wed 01:48:02 AM 35.5970 140.8980 247° West 259 298 7,200 -1,280 Descending FlightAware ADS-B
Wed 01:48:47 AM 35.5770 140.8360 248° West 248 285 6,300 -1,214 Descending FlightAware ADS-B
Wed 01:49:26 AM 35.5650 140.7930 251° West 249 287 5,500 -1,231 Descending FlightAware ADS-B
Wed 01:50:05 AM 35.5470 140.7340 249° West 248 285 4,700 -1,200 Descending FlightAware ADS-B
Wed 01:50:26 AM 35.5400 140.7090 251° West 247 284 4,300 -984 Descending FlightAware ADS-B
Wed 01:51:06 AM 35.5230 140.6540 249° West 243 280 3,700 -450 Descending FlightAware ADS-B
Wed 01:51:46 AM 35.5090 140.6050 251° West 240 276 3,700 73 Level FlightAware ADS-B
Wed 01:52:28 AM 35.5190 140.5520 283° West 202 232 3,800  Climbing FlightAware ADS-B
Wed 01:53:03 AM 35.5450 140.5330 329° Northwest 179 206 3,700  Descending FlightAware ADS-B
Wed 01:53:39 AM 35.5700 140.5150 330° Northwest 165 190 3,800 -405 Climbing FlightAware ADS-B
Wed 01:54:17 AM 35.5960 140.4970 331° Northwest 165 190 3,200 -909 Descending FlightAware ADS-B
Wed 01:54:45 AM 35.6130 140.4840 328° Northwest 162 186 2,800 -844 Descending FlightAware ADS-B
Wed 01:55:21 AM 35.6370 140.4680 332° Northwest 157 181 2,300 -878 Descending FlightAware ADS-B
Wed 01:56:07 AM 35.6660 140.4460 328° Northwest 151 174 1,600 -815 Descending FlightAware ADS-B
Wed 01:56:42 AM 35.6850 140.4330 331° Northwest 139 160 1,200 -711 Descending FlightAware ADS-B
Wed 01:57:23 AM 35.7070 140.4170 329° Northwest 136 157 700 -732 Descending FlightAware ADS-B
Wed 01:58:04 AM 35.7290 140.4010 329° Northwest 132 152 200 -732 Descending FlightAware ADS-B
Wed 01:58:19 AM 35.7380 140.3950 332° Northwest 138 159 -800 Descending FlightAware ADS-B
Wed 01:58:45 AM 35.7500 140.3860 329° Northwest 138 159  Level FlightAware ADS-B

Login

Don't have an account? Register now (free) for customized features, flight alerts, and more!